K4HG-2 Weather Reports


Display with metric or nautical units.
time (UTC)temp
F
wind
direction
speed
MPH
gust
MPH
rain 1hr
in
rain 24hr
in
rain mn
in
humidity
%
barometer
mb
20211022195216 82 156 0.0 8.0 0.00 0.00 0.00 73 1012.0
20211022195116 82 192 1.0 8.0 0.00 0.00 0.00 73 1012.0
20211022195016 82 198 3.0 11.0 0.00 0.00 0.00 73 1012.1
20211022194916 82 191 5.0 11.0 0.00 0.00 0.00 74 1012.1
20211022194716 82 195 3.0 11.0 0.00 0.00 0.00 75 1012.1
20211022194616 82 187 6.0 11.0 0.00 0.00 0.00 75 1012.1
20211022194517 82 191 1.0 1.0 0.00 0.00 0.00 75 1012.0
20211022194416 82 284 0.0 1.0 0.00 0.00 0.00 76 1012.0
20211022194316 83 284 0.0 1.0 0.00 0.00 0.00 76 1012.0
20211022194216 82 284 0.0 1.0 0.00 0.00 0.00 76 1012.0
20211022193916 82 284 0.0 1.0 0.00 0.00 0.00 76 1012.1
20211022193816 82 284 0.0 1.0 0.00 0.00 0.00 76 1012.1
20211022193716 82 284 0.0 1.0 0.00 0.00 0.00 76 1012.1
20211022193616 83 281 0.0 1.0 0.00 0.00 0.00 76 1012.1
20211022193517 83 56 0.0 0.0 0.00 0.00 0.00 76 1012.1
20211022193417 83 56 0.0 0.0 0.00 0.00 0.00 76 1012.1
20211022193316 82 56 0.0 0.0 0.00 0.00 0.00 76 1012.1
20211022193216 82 56 0.0 0.0 0.00 0.00 0.00 76 1012.1
20211022193116 83 56 0.0 0.0 0.00 0.00 0.00 76 1012.1
20211022193016 82 56 0.0 1.0 0.00 0.00 0.00 76 1012.2
20211022192916 82 56 0.0 1.0 0.00 0.00 0.00 76 1012.1
20211022192815 82 56 0.0 1.0 0.00 0.00 0.00 76 1012.2
20211022192616 82 56 0.0 1.0 0.00 0.00 0.00 76 1012.2
20211022192416 82 56 0.0 1.0 0.00 0.00 0.00 76 1012.2
20211022192315 82 56 0.0 1.0 0.00 0.00 0.00 76 1012.2
20211022192217 82 56 0.0 1.0 0.00 0.00 0.00 76 1012.3
20211022192115 82 56 0.0 1.0 0.00 0.00 0.00 76 1012.3
20211022192016 82 56 0.0 0.0 0.00 0.00 0.00 76 1012.3
20211022191916 82 56 0.0 0.0 0.00 0.00 0.00 76 1012.4
20211022191816 82 18 0.0 0.0 0.00 0.00 0.00 76 1012.4
20211022191716 82 18 0.0 0.0 0.00 0.00 0.00 76 1012.5
20211022191616 82 18 0.0 0.0 0.00 0.00 0.00 76 1012.5
20211022191516 82 18 0.0 0.0 0.00 0.00 0.00 76 1012.5
20211022191416 82 18 0.0 0.0 0.00 0.00 0.00 76 1012.4
20211022191316 82 18 0.0 0.0 0.00 0.00 0.00 76 1012.4
20211022191116 82 18 0.0 0.0 0.00 0.00 0.00 76 1012.3
20211022191015 82 18 0.0 0.0 0.00 0.00 0.00 76 1012.4
20211022190916 82 18 0.0 0.0 0.00 0.00 0.00 76 1012.3
20211022190815 82 18 0.0 0.0 0.00 0.00 0.00 76 1012.3
20211022190615 82 18 0.0 0.0 0.00 0.00 0.00 76 1012.3
20211022190516 82 18 0.0 3.0 0.00 0.00 0.00 76 1012.3
20211022190416 82 18 0.0 3.0 0.00 0.00 0.00 76 1012.4
20211022190316 82 18 0.0 3.0 0.00 0.00 0.00 76 1012.5
20211022190216 82 18 0.0 3.0 0.00 0.00 0.00 76 1012.5
20211022190115 82 18 1.0 3.0 0.00 0.00 0.00 76 1012.5
20211022190017 82 64 2.0 0.0 0.00 0.00 0.00 76 1012.5
20211022185916 82 12 0.0 0.0 0.00 0.00 0.00 76 1012.5
20211022185816 82 351 0.0 0.0 0.00 0.00 0.00 76 1012.5
20211022185717 83 351 0.0 0.0 0.00 0.00 0.00 76 1012.5
20211022185515 83 351 0.0 0.0 0.00 0.00 0.00 76 1012.6
20211022185416 82 351 0.0 0.0 0.00 0.00 0.00 76 1012.5
20211022185316 82 351 0.0 0.0 0.00 0.00 0.00 76 1012.6
20211022185216 82 351 0.0 0.0 0.00 0.00 0.00 75 1012.6
20211022185116 82 351 0.0 0.0 0.00 0.00 0.00 75 1012.6
20211022185016 83 351 0.0 0.0 0.00 0.00 0.00 75 1012.6
20211022184917 82 351 0.0 0.0 0.00 0.00 0.00 75 1012.6
20211022184716 83 351 0.0 0.0 0.00 0.00 0.00 76 1012.7
20211022184615 83 351 0.0 0.0 0.00 0.00 0.00 76 1012.7
20211022184516 82 351 0.0 2.0 0.00 0.00 0.00 76 1012.7
20211022184415 82 351 0.0 2.0 0.00 0.00 0.00 76 1012.7
20211022184316 82 351 0.0 2.0 0.00 0.00 0.00 76 1012.7
20211022184216 82 330 0.0 2.0 0.00 0.00 0.00 76 1012.8
20211022184117 82 330 0.0 2.0 0.00 0.00 0.00 76 1012.8
20211022184016 82 330 0.0 0.0 0.00 0.00 0.00 76 1012.7
20211022183716 82 32 0.0 0.0 0.00 0.00 0.00 76 1012.8
20211022183516 83 32 0.0 0.0 0.00 0.00 0.00 76 1012.8
20211022183416 82 32 0.0 0.0 0.00 0.00 0.00 76 1012.8
20211022183316 83 32 0.0 0.0 0.00 0.00 0.00 76 1012.8
20211022183216 82 32 0.0 0.0 0.00 0.00 0.00 76 1012.8
20211022183116 82 32 0.0 0.0 0.00 0.00 0.00 76 1012.9
20211022183015 82 32 0.0 0.0 0.00 0.00 0.00 76 1012.9
20211022182916 82 32 0.0 0.0 0.00 0.00 0.00 76 1012.9
20211022182815 83 32 0.0 0.0 0.00 0.00 0.00 76 1013.0
20211022182717 82 32 0.0 0.0 0.00 0.00 0.00 75 1012.9
20211022182615 83 32 0.0 0.0 0.00 0.00 0.00 75 1013.0
20211022182516 82 32 0.0 3.0 0.00 0.00 0.00 75 1012.9
20211022182415 83 32 0.0 3.0 0.00 0.00 0.00 75 1012.9
20211022182316 83 32 0.0 3.0 0.00 0.00 0.00 75 1012.9
20211022182217 83 32 0.0 3.0 0.00 0.00 0.00 75 1012.9
20211022182115 83 32 0.0 3.0 0.00 0.00 0.00 76 1012.9
20211022181917 83 95 2.0 4.0 0.00 0.00 0.00 76 1012.8
20211022181816 82 255 0.0 4.0 0.00 0.00 0.00 75 1012.8
20211022181716 83 255 0.0 4.0 0.00 0.00 0.00 76 1012.9
20211022181615 82 33 1.0 4.0 0.00 0.00 0.00 75 1012.9
20211022181416 82 315 0.0 1.0 0.00 0.00 0.00 76 1013.0
20211022181315 83 12 0.0 1.0 0.00 0.00 0.00 75 1013.0
20211022181216 83 12 1.0 1.0 0.00 0.00 0.00 75 1013.1
20211022181115 83 358 0.0 1.0 0.00 0.00 0.00 75 1013.1
20211022181016 83 358 0.0 0.0 0.00 0.00 0.00 75 1013.1
20211022180916 83 16 0.0 0.0 0.00 0.00 0.00 75 1013.1
20211022180816 83 16 0.0 0.0 0.00 0.00 0.00 75 1013.1
20211022180516 82 39 0.0 0.0 0.00 0.00 0.00 76 1013.1
20211022180416 83 39 0.0 0.0 0.00 0.00 0.00 76 1013.2
20211022180216 83 39 0.0 0.0 0.00 0.00 0.00 76 1013.2
20211022180016 82 39 0.0 0.0 0.00 0.00 0.00 76 1013.2
20211022175916 83 39 0.0 0.0 0.00 0.00 0.00 76 1013.2
20211022175716 83 39 0.0 0.0 0.00 0.00 0.00 76 1013.2
20211022175616 83 39 0.0 0.0 0.00 0.00 0.00 76 1013.2
20211022175515 83 39 0.0 5.0 0.00 0.00 0.00 76 1013.3
20211022175416 83 39 0.0 5.0 0.00 0.00 0.00 75 1013.3
20211022175215 83 39 0.0 5.0 0.00 0.00 0.00 76 1013.4
20211022175116 83 39 0.0 5.0 0.00 0.00 0.00 75 1013.4
20211022175016 83 39 0.0 6.0 0.00 0.00 0.00 75 1013.4
20211022174916 83 5 0.0 6.0 0.00 0.00 0.00 75 1013.4
20211022174815 82 42 2.0 6.0 0.00 0.00 0.00 75 1013.4
20211022174716 83 22 4.0 6.0 0.00 0.00 0.00 75 1013.4
20211022174615 83 33 5.0 6.0 0.00 0.00 0.00 75 1013.4
20211022174516 83 46 2.0 7.0 0.00 0.00 0.00 75 1013.3
20211022174316 83 53 0.0 7.0 0.00 0.00 0.00 75 1013.3
20211022174116 83 28 2.0 7.0 0.00 0.00 0.00 75 1013.4
20211022173915 83 312 1.0 3.0 0.00 0.00 0.00 75 1013.4
20211022173816 83 18 1.0 3.0 0.00 0.00 0.00 75 1013.3
20211022173715 83 61 2.0 3.0 0.00 0.00 0.00 75 1013.3
20211022173616 83 29 1.0 3.0 0.00 0.00 0.00 74 1013.4
20211022173515 83 5 0.0 4.0 0.00 0.00 0.00 75 1013.4
20211022173416 83 334 0.0 4.0 0.00 0.00 0.00 75 1013.4
20211022173317 83 21 0.0 4.0 0.00 0.00 0.00 75 1013.4
20211022173217 83 43 0.0 4.0 0.00 0.00 0.00 75 1013.5
20211022173116 83 7 0.0 4.0 0.00 0.00 0.00 75 1013.5
20211022172916 83 7 0.0 5.0 0.00 0.00 0.00 75 1013.5
20211022172815 83 75 4.0 5.0 0.00 0.00 0.00 75 1013.6
20211022172716 83 66 0.0 5.0 0.00 0.00 0.00 75 1013.5
20211022172616 83 37 4.0 5.0 0.00 0.00 0.00 75 1013.5
20211022172516 83 43 4.0 4.0 0.00 0.00 0.00 75 1013.5
20211022172415 83 340 1.0 4.0 0.00 0.00 0.00 75 1013.6
20211022172216 83 357 0.0 4.0 0.00 0.00 0.00 75 1013.5
20211022172116 83 357 0.0 4.0 0.00 0.00 0.00 75 1013.5
20211022172015 83 22 3.0 7.0 0.00 0.00 0.00 75 1013.6
20211022171916 83 66 1.0 7.0 0.00 0.00 0.00 75 1013.6
20211022171816 83 352 2.0 7.0 0.00 0.00 0.00 75 1013.6
20211022171716 83 47 0.0 7.0 0.00 0.00 0.00 75 1013.7
20211022171616 83 45 2.0 7.0 0.00 0.00 0.00 75 1013.7
20211022171515 83 49 0.0 6.0 0.00 0.00 0.00 75 1013.7
20211022171416 83 84 6.0 6.0 0.00 0.00 0.00 75 1013.7
20211022171316 83 16 1.0 6.0 0.00 0.00 0.00 75 1013.6
20211022171215 83 78 2.0 6.0 0.00 0.00 0.00 75 1013.7
20211022171116 83 43 0.0 6.0 0.00 0.00 0.00 75 1013.6
20211022171016 83 53 0.0 0.0 0.00 0.00 0.00 75 1013.6
20211022170916 83 70 2.0 0.0 0.00 0.00 0.00 75 1013.7
20211022170815 83 35 2.0 0.0 0.00 0.00 0.00 75 1013.7
20211022170717 83 73 4.0 0.0 0.00 0.00 0.00 75 1013.7
20211022170615 83 47 0.0 0.0 0.00 0.00 0.00 75 1013.8
20211022170517 83 47 0.0 0.0 0.00 0.00 0.00 75 1013.8
20211022170416 83 47 0.0 0.0 0.00 0.00 0.00 75 1013.8
20211022170116 83 47 0.0 0.0 0.00 0.00 0.00 75 1013.9
20211022170015 83 47 0.0 0.0 0.00 0.00 0.00 75 1013.9
20211022165916 83 47 0.0 0.0 0.00 0.00 0.00 74 1013.9
20211022165815 83 47 0.0 0.0 0.00 0.00 0.00 75 1013.9
20211022165716 83 47 0.0 0.0 0.00 0.00 0.00 75 1013.9
20211022165616 83 47 0.0 0.0 0.00 0.00 0.00 75 1013.9
20211022165416 83 47 0.0 0.0 0.00 0.00 0.00 75 1013.8
20211022165316 83 47 0.0 0.0 0.00 0.00 0.00 75 1013.9
20211022165216 83 47 0.0 0.0 0.00 0.00 0.00 75 1013.9
20211022165015 83 47 0.0 0.0 0.00 0.00 0.00 74 1013.8
20211022164816 83 47 0.0 0.0 0.00 0.00 0.00 74 1013.8
20211022164615 83 47 0.0 0.0 0.00 0.00 0.00 74 1013.8
20211022164517 83 47 0.0 0.0 0.00 0.00 0.00 74 1013.8
20211022164416 83 47 0.0 0.0 0.00 0.00 0.00 74 1013.8
20211022164316 83 47 0.0 0.0 0.00 0.00 0.00 74 1013.8
20211022164215 83 47 0.0 0.0 0.00 0.00 0.00 75 1013.8
20211022164116 83 47 0.0 0.0 0.00 0.00 0.00 75 1013.9
20211022164017 83 47 0.0 5.0 0.00 0.00 0.00 75 1013.9
20211022163916 83 47 0.0 5.0 0.00 0.00 0.00 75 1014.0
20211022163816 83 47 0.0 5.0 0.00 0.00 0.00 75 1014.0
20211022163717 83 47 0.0 5.0 0.00 0.00 0.00 75 1014.0
20211022163616 83 47 0.0 5.0 0.00 0.00 0.00 75 1014.0
20211022163516 83 63 1.0 9.0 0.00 0.00 0.00 75 1014.0
20211022163416 83 95 4.0 9.0 0.00 0.00 0.00 75 1014.1
20211022163316 83 47 1.0 9.0 0.00 0.00 0.00 75 1014.1
20211022163216 83 331 1.0 9.0 0.00 0.00 0.00 75 1014.1
20211022163115 83 28 2.0 9.0 0.00 0.00 0.00 75 1014.0
20211022163016 83 53 0.0 8.0 0.00 0.00 0.00 75 1014.1
20211022162915 83 108 2.0 8.0 0.00 0.00 0.00 75 1014.1
20211022162816 83 32 3.0 8.0 0.00 0.00 0.00 75 1014.0
20211022162716 83 73 3.0 8.0 0.00 0.00 0.00 75 1014.1
20211022162615 83 57 6.0 8.0 0.00 0.00 0.00 75 1014.1
20211022162516 83 16 4.0 0.0 0.00 0.00 0.00 75 1014.1
20211022162416 83 66 0.0 0.0 0.00 0.00 0.00 75 1014.0
20211022162315 83 68 6.0 0.0 0.00 0.00 0.00 75 1014.0
20211022162116 83 46 0.0 0.0 0.00 0.00 0.00 75 1014.0
20211022162016 83 46 0.0 0.0 0.00 0.00 0.00 75 1014.0
20211022161916 83 46 0.0 0.0 0.00 0.00 0.00 75 1014.0
20211022161816 83 46 0.0 0.0 0.00 0.00 0.00 75 1014.0
20211022161715 83 46 0.0 0.0 0.00 0.00 0.00 76 1014.0
20211022161616 83 46 0.0 0.0 0.00 0.00 0.00 76 1014.0
20211022161516 83 46 0.0 4.0 0.00 0.00 0.00 76 1014.0
20211022161415 83 46 0.0 4.0 0.00 0.00 0.00 76 1014.1
20211022161215 83 46 0.0 4.0 0.00 0.00 0.00 76 1014.1
20211022161116 83 46 0.0 4.0 0.00 0.00 0.00 75 1014.1
20211022161016 83 9 1.0 8.0 0.00 0.00 0.00 76 1014.1
20211022160915 83 28 1.0 8.0 0.00 0.00 0.00 76 1014.1
20211022160716 83 43 0.0 8.0 0.00 0.00 0.00 76 1014.1
20211022160615 83 43 0.0 8.0 0.00 0.00 0.00 76 1014.1
20211022160516 83 53 3.0 6.0 0.00 0.00 0.00 76 1014.1
20211022160415 83 40 5.0 6.0 0.00 0.00 0.00 76 1014.1
20211022160316 83 33 0.0 6.0 0.00 0.00 0.00 76 1014.1
20211022160216 83 278 3.0 6.0 0.00 0.00 0.00 76 1014.1
20211022160116 83 39 3.0 6.0 0.00 0.00 0.00 76 1014.1
20211022160018 83 19 0.0 8.0 0.00 0.00 0.00 76 1014.2
20211022155916 83 352 0.0 8.0 0.00 0.00 0.00 76 1014.1
20211022155816 83 300 0.0 8.0 0.00 0.00 0.00 77 1014.2
20211022155616 83 25 0.0 8.0 0.00 0.00 0.00 77 1014.2
20211022155516 83 53 0.0 6.0 0.00 0.00 0.00 77 1014.2
20211022155416 82 30 4.0 6.0 0.00 0.00 0.00 77 1014.2
20211022155316 83 8 3.0 6.0 0.00 0.00 0.00 77 1014.2
20211022155215 83 12 0.0 6.0 0.00 0.00 0.00 77 1014.1
20211022155116 83 37 3.0 6.0 0.00 0.00 0.00 77 1014.2
20211022154915 82 15 3.0 4.0 0.00 0.00 0.00 77 1014.2
20211022154816 82 341 0.0 4.0 0.00 0.00 0.00 77 1014.2
20211022154716 82 50 0.0 4.0 0.00 0.00 0.00 77 1014.2
20211022154616 82 354 1.0 4.0 0.00 0.00 0.00 77 1014.2
20211022154516 82 19 0.0 6.0 0.00 0.00 0.00 77 1014.2
20211022154416 82 67 3.0 6.0 0.00 0.00 0.00 78 1014.3
20211022154316 82 21 0.0 6.0 0.00 0.00 0.00 78 1014.3
20211022154215 82 21 0.0 6.0 0.00 0.00 0.00 78 1014.3
20211022154117 82 21 0.0 6.0 0.00 0.00 0.00 78 1014.3
20211022154016 82 21 0.0 5.0 0.00 0.00 0.00 78 1014.4
20211022153916 82 21 0.0 5.0 0.00 0.00 0.00 78 1014.4
20211022153816 82 28 2.0 5.0 0.00 0.00 0.00 78 1014.4
20211022153715 82 309 0.0 5.0 0.00 0.00 0.00 78 1014.4
20211022153516 82 1 2.0 4.0 0.00 0.00 0.00 78 1014.5
20211022153316 82 66 1.0 4.0 0.00 0.00 0.00 78 1014.5
20211022153216 82 11 1.0 4.0 0.00 0.00 0.00 78 1014.5
20211022153115 82 29 1.0 4.0 0.00 0.00 0.00 78 1014.5
20211022153017 82 336 0.0 5.0 0.00 0.00 0.00 78 1014.5
20211022152915 81 49 2.0 5.0 0.00 0.00 0.00 78 1014.6
20211022152615 82 9 3.0 5.0 0.00 0.00 0.00 79 1014.6
20211022152517 82 11 2.0 6.0 0.00 0.00 0.00 79 1014.6
20211022152417 82 57 0.0 6.0 0.00 0.00 0.00 79 1014.6
20211022152316 82 64 1.0 6.0 0.00 0.00 0.00 79 1014.7
20211022152216 82 25 3.0 6.0 0.00 0.00 0.00 79 1014.7
20211022152116 82 50 0.0 6.0 0.00 0.00 0.00 79 1014.7
20211022152017 82 57 3.0 0.0 0.00 0.00 0.00 79 1014.7
20211022151916 82 81 4.0 0.0 0.00 0.00 0.00 79 1014.7
20211022151716 82 15 0.0 0.0 0.00 0.00 0.00 79 1014.7
20211022151616 82 15 0.0 0.0 0.00 0.00 0.00 79 1014.6
20211022151516 82 15 0.0 4.0 0.00 0.00 0.00 79 1014.7
20211022151416 82 15 0.0 4.0 0.00 0.00 0.00 79 1014.7
20211022151317 81 15 0.0 4.0 0.00 0.00 0.00 79 1014.7
20211022151216 82 15 0.0 4.0 0.00 0.00 0.00 79 1014.6
20211022151017 82 15 0.0 5.0 0.00 0.00 0.00 79 1014.7
20211022150916 82 15 0.0 5.0 0.00 0.00 0.00 79 1014.6
20211022150615 82 78 3.0 5.0 0.00 0.00 0.00 79 1014.6
20211022150516 81 15 4.0 6.0 0.00 0.00 0.00 79 1014.6
20211022150415 81 19 2.0 6.0 0.00 0.00 0.00 79 1014.7
20211022150316 81 82 2.0 6.0 0.00 0.00 0.00 79 1014.7
20211022150216 82 28 0.0 6.0 0.00 0.00 0.00 79 1014.6
20211022150116 82 25 1.0 6.0 0.00 0.00 0.00 79 1014.6
20211022150016 81 75 5.0 5.0 0.00 0.00 0.00 79 1014.6
20211022145916 82 21 2.0 5.0 0.00 0.00 0.00 79 1014.6
20211022145816 82 12 0.0 5.0 0.00 0.00 0.00 79 1014.6
20211022145716 81 12 0.0 5.0 0.00 0.00 0.00 79 1014.6
20211022145616 81 12 0.0 5.0 0.00 0.00 0.00 79 1014.6
20211022145516 81 74 0.0 5.0 0.00 0.00 0.00 79 1014.6
20211022145416 82 60 2.0 5.0 0.00 0.00 0.00 79 1014.6
20211022145315 82 68 4.0 5.0 0.00 0.00 0.00 79 1014.6
20211022145216 82 57 2.0 5.0 0.00 0.00 0.00 79 1014.6
20211022145116 81 52 4.0 5.0 0.00 0.00 0.00 79 1014.6
20211022145016 81 78 2.0 5.0 0.00 0.00 0.00 79 1014.6
20211022144916 81 47 3.0 5.0 0.00 0.00 0.00 79 1014.6
20211022144816 82 36 4.0 5.0 0.00 0.00 0.00 79 1014.7
20211022144716 81 75 0.0 5.0 0.00 0.00 0.00 79 1014.7
20211022144616 81 19 2.0 5.0 0.00 0.00 0.00 79 1014.7
20211022144517 81 35 0.0 5.0 0.00 0.00 0.00 79 1014.7
20211022144416 82 35 0.0 5.0 0.00 0.00 0.00 79 1014.8
20211022144316 81 35 0.0 5.0 0.00 0.00 0.00 79 1014.8
20211022144116 82 35 0.0 5.0 0.00 0.00 0.00 79 1014.8
20211022144016 81 35 0.0 5.0 0.00 0.00 0.00 79 1014.8
20211022143916 81 35 0.0 5.0 0.00 0.00 0.00 79 1014.8
20211022143715 81 23 0.0 5.0 0.00 0.00 0.00 79 1014.8
20211022143617 81 59 3.0 5.0 0.00 0.00 0.00 79 1014.8
20211022143517 81 15 0.0 3.0 0.00 0.00 0.00 79 1014.8
20211022143416 81 43 1.0 3.0 0.00 0.00 0.00 79 1014.8
20211022143316 81 284 1.0 3.0 0.00 0.00 0.00 79 1014.8
20211022143217 82 300 3.0 3.0 0.00 0.00 0.00 79 1014.8
20211022143115 81 63 4.0 3.0 0.00 0.00 0.00 79 1014.8
20211022143016 81 279 0.0 0.0 0.00 0.00 0.00 79 1014.8
20211022142915 81 279 0.0 0.0 0.00 0.00 0.00 79 1014.7
20211022142816 81 29 0.0 0.0 0.00 0.00 0.00 79 1014.7
20211022142716 81 29 0.0 0.0 0.00 0.00 0.00 79 1014.8
20211022142616 81 29 0.0 0.0 0.00 0.00 0.00 79 1014.8
20211022142516 82 29 0.0 4.0 0.00 0.00 0.00 79 1014.7
20211022142416 81 29 0.0 4.0 0.00 0.00 0.00 79 1014.8
20211022142316 81 29 0.0 4.0 0.00 0.00 0.00 79 1014.7
20211022142116 81 29 0.0 4.0 0.00 0.00 0.00 79 1014.8
20211022142015 81 29 0.0 6.0 0.00 0.00 0.00 79 1014.7
20211022141916 81 29 0.0 6.0 0.00 0.00 0.00 79 1014.7
20211022141816 81 25 2.0 6.0 0.00 0.00 0.00 79 1014.7
20211022141616 81 30 1.0 6.0 0.00 0.00 0.00 79 1014.7
20211022141515 81 4 3.0 3.0 0.00 0.00 0.00 79 1014.7
20211022141416 81 42 0.0 3.0 0.00 0.00 0.00 79 1014.8
20211022141315 81 39 1.0 3.0 0.00 0.00 0.00 79 1014.7
20211022141116 81 21 1.0 3.0 0.00 0.00 0.00 79 1014.7
20211022141016 82 36 0.0 6.0 0.00 0.00 0.00 79 1014.7
20211022140916 81 36 0.0 6.0 0.00 0.00 0.00 79 1014.6
20211022140816 81 36 0.0 6.0 0.00 0.00 0.00 79 1014.6
20211022140717 81 36 0.0 6.0 0.00 0.00 0.00 79 1014.6
20211022140615 81 36 0.0 6.0 0.00 0.00 0.00 79 1014.6
20211022140516 82 22 3.0 7.0 0.00 0.00 0.00 79 1014.6
20211022140416 81 357 3.0 7.0 0.00 0.00 0.00 79 1014.7
20211022140316 82 53 0.0 7.0 0.00 0.00 0.00 79 1014.7
20211022140216 81 73 4.0 7.0 0.00 0.00 0.00 79 1014.6
20211022140116 81 52 1.0 7.0 0.00 0.00 0.00 79 1014.7
20211022140017 81 29 0.0 4.0 0.00 0.00 0.00 79 1014.7
20211022135916 82 29 0.0 4.0 0.00 0.00 0.00 79 1014.6
20211022135816 81 8 1.0 4.0 0.00 0.00 0.00 79 1014.7
20211022135715 81 5 2.0 4.0 0.00 0.00 0.00 79 1014.6
20211022135616 81 30 2.0 4.0 0.00 0.00 0.00 79 1014.6
20211022135515 81 32 3.0 5.0 0.00 0.00 0.00 79 1014.6
20211022135417 81 343 0.0 5.0 0.00 0.00 0.00 79 1014.6
20211022135316 81 42 1.0 5.0 0.00 0.00 0.00 79 1014.6
20211022135117 81 61 0.0 5.0 0.00 0.00 0.00 79 1014.6
20211022135016 81 25 1.0 5.0 0.00 0.00 0.00 79 1014.6
20211022134616 81 59 2.0 5.0 0.00 0.00 0.00 79 1014.5
20211022134515 81 7 1.0 5.0 0.00 0.00 0.00 79 1014.5
20211022134215 81 25 0.0 5.0 0.00 0.00 0.00 79 1014.5
20211022134116 81 33 0.0 5.0 0.00 0.00 0.00 79 1014.5
20211022134016 81 47 2.0 4.0 0.00 0.00 0.00 79 1014.4
20211022133616 81 40 0.0 4.0 0.00 0.00 0.00 80 1014.4
20211022133516 81 37 1.0 7.0 0.00 0.00 0.00 80 1014.4
20211022133416 81 32 0.0 7.0 0.00 0.00 0.00 80 1014.4
20211022133316 81 277 0.0 7.0 0.00 0.00 0.00 80 1014.4
20211022133215 81 45 0.0 7.0 0.00 0.00 0.00 80 1014.3
20211022133116 81 68 0.0 7.0 0.00 0.00 0.00 80 1014.3
20211022133015 81 66 0.0 5.0 0.00 0.00 0.00 80 1014.3
20211022132916 81 300 0.0 5.0 0.00 0.00 0.00 80 1014.3
20211022132816 81 32 3.0 5.0 0.00 0.00 0.00 80 1014.3
20211022132716 81 75 1.0 5.0 0.00 0.00 0.00 80 1014.3
20211022132615 81 66 3.0 5.0 0.00 0.00 0.00 80 1014.3
20211022132516 81 40 0.0 5.0 0.00 0.00 0.00 80 1014.2
20211022132415 81 40 0.0 5.0 0.00 0.00 0.00 80 1014.2
20211022132316 81 49 2.0 5.0 0.00 0.00 0.00 80 1014.3
20211022132115 81 77 0.0 5.0 0.00 0.00 0.00 80 1014.2
20211022132017 81 80 4.0 5.0 0.00 0.00 0.00 80 1014.2
20211022131916 81 78 1.0 5.0 0.00 0.00 0.00 80 1014.2
20211022131816 81 59 2.0 5.0 0.00 0.00 0.00 80 1014.2
20211022131716 81 77 3.0 5.0 0.00 0.00 0.00 80 1014.2
20211022131416 81 78 0.0 3.0 0.00 0.00 0.00 80 1014.2
20211022131316 81 78 0.0 3.0 0.00 0.00 0.00 80 1014.2
20211022131216 81 78 0.0 3.0 0.00 0.00 0.00 80 1014.2
20211022131116 81 78 0.0 3.0 0.00 0.00 0.00 80 1014.2
20211022131016 81 78 0.0 5.0 0.00 0.00 0.00 80 1014.1
20211022130917 81 14 0.0 5.0 0.00 0.00 0.00 80 1014.2
20211022130815 81 14 0.0 5.0 0.00 0.00 0.00 80 1014.2
20211022130716 81 14 0.0 5.0 0.00 0.00 0.00 80 1014.1
20211022130615 80 53 3.0 5.0 0.00 0.00 0.00 80 1014.1
20211022130516 81 56 5.0 0.0 0.00 0.00 0.00 80 1014.1
20211022130415 81 42 0.0 0.0 0.00 0.00 0.00 80 1014.1
20211022130316 81 42 0.0 0.0 0.00 0.00 0.00 80 1014.2
20211022130216 81 39 2.0 0.0 0.00 0.00 0.00 81 1014.1
20211022130116 81 47 0.0 0.0 0.00 0.00 0.00 81 1014.1
20211022130015 81 47 0.0 5.0 0.00 0.00 0.00 81 1014.1
20211022125916 81 47 0.0 5.0 0.00 0.00 0.00 81 1014.1
20211022125816 80 47 0.0 5.0 0.00 0.00 0.00 81 1014.1
20211022125715 81 47 0.0 5.0 0.00 0.00 0.00 81 1014.1
20211022125616 81 47 0.0 5.0 0.00 0.00 0.00 81 1014.1
20211022125516 81 45 1.0 5.0 0.00 0.00 0.00 81 1014.1
20211022125315 81 35 1.0 5.0 0.00 0.00 0.00 81 1014.1
20211022125216 81 56 2.0 5.0 0.00 0.00 0.00 81 1014.0
20211022125116 80 36 0.0 5.0 0.00 0.00 0.00 81 1014.1
20211022125016 81 36 0.0 0.0 0.00 0.00 0.00 81 1014.0
20211022124915 81 50 2.0 0.0 0.00 0.00 0.00 81 1014.1
20211022124816 80 5 1.0 0.0 0.00 0.00 0.00 81 1014.0
20211022124715 81 43 2.0 0.0 0.00 0.00 0.00 81 1014.0
20211022124616 80 334 0.0 0.0 0.00 0.00 0.00 81 1014.0
20211022124516 80 334 0.0 4.0 0.00 0.00 0.00 81 1014.0
20211022124417 80 334 0.0 4.0 0.00 0.00 0.00 81 1014.0
20211022124315 81 334 0.0 4.0 0.00 0.00 0.00 81 1014.0
20211022124216 81 334 0.0 4.0 0.00 0.00 0.00 81 1014.0
20211022124117 80 334 0.0 4.0 0.00 0.00 0.00 81 1014.0
20211022124016 80 334 0.0 4.0 0.00 0.00 0.00 81 1013.9
20211022123916 81 334 0.0 4.0 0.00 0.00 0.00 81 1014.0
20211022123817 80 334 0.0 4.0 0.00 0.00 0.00 81 1013.9
20211022123716 80 39 0.0 4.0 0.00 0.00 0.00 81 1013.9
20211022123616 80 350 0.0 4.0 0.00 0.00 0.00 81 1013.9
20211022123516 81 337 1.0 4.0 0.00 0.00 0.00 81 1013.9
20211022123416 80 25 3.0 4.0 0.00 0.00 0.00 81 1013.9
20211022123216 80 337 1.0 4.0 0.00 0.00 0.00 81 1013.9
20211022123016 80 53 0.0 4.0 0.00 0.00 0.00 81 1013.9
20211022122916 80 57 3.0 4.0 0.00 0.00 0.00 81 1013.9
20211022122816 80 33 0.0 4.0 0.00 0.00 0.00 81 1013.9
20211022122716 80 33 0.0 4.0 0.00 0.00 0.00 81 1013.9
20211022122616 80 33 0.0 4.0 0.00 0.00 0.00 81 1013.9
20211022122516 80 8 0.0 4.0 0.00 0.00 0.00 81 1013.9
20211022122416 80 68 0.0 4.0 0.00 0.00 0.00 81 1013.9
20211022122316 80 8 0.0 4.0 0.00 0.00 0.00 81 1013.9
20211022122216 80 46 1.0 4.0 0.00 0.00 0.00 81 1013.8
20211022122116 80 40 2.0 4.0 0.00 0.00 0.00 81 1013.9
20211022122015 80 53 2.0 0.0 0.00 0.00 0.00 81 1013.9
20211022121916 80 18 0.0 0.0 0.00 0.00 0.00 81 1013.9
20211022121817 80 53 3.0 0.0 0.00 0.00 0.00 81 1013.8
20211022121716 80 15 0.0 0.0 0.00 0.00 0.00 81 1013.8
20211022121616 80 15 0.0 0.0 0.00 0.00 0.00 81 1013.8
20211022121516 80 15 0.0 0.0 0.00 0.00 0.00 81 1013.8
20211022121415 80 15 0.0 0.0 0.00 0.00 0.00 81 1013.8
20211022121317 80 15 0.0 0.0 0.00 0.00 0.00 81 1013.7
20211022121217 80 15 0.0 0.0 0.00 0.00 0.00 81 1013.7
20211022121116 80 15 0.0 0.0 0.00 0.00 0.00 81 1013.8
20211022121017 80 15 0.0 0.0 0.00 0.00 0.00 81 1013.6
20211022120915 80 15 0.0 0.0 0.00 0.00 0.00 81 1013.6
20211022120816 80 15 0.0 0.0 0.00 0.00 0.00 81 1013.6
20211022120715 80 15 0.0 0.0 0.00 0.00 0.00 81 1013.6
20211022120616 80 15 0.0 0.0 0.00 0.00 0.00 81 1013.8
20211022120515 80 15 0.0 0.0 0.00 0.00 0.00 81 1013.8
20211022120416 80 15 0.0 0.0 0.00 0.00 0.00 81 1013.8
20211022120315 80 15 0.0 0.0 0.00 0.00 0.00 81 1013.8
20211022120116 80 15 0.0 0.0 0.00 0.00 0.00 81 1013.7
20211022120015 80 15 0.0 0.0 0.00 0.00 0.00 81 1013.6
20211022115916 80 15 0.0 0.0 0.00 0.00 0.00 81 1013.7
20211022115815 80 15 0.0 0.0 0.00 0.00 0.00 81 1013.6
20211022115716 80 15 0.0 0.0 0.00 0.00 0.00 81 1013.6
20211022115615 80 15 0.0 0.0 0.00 0.00 0.00 81 1013.6
20211022115516 80 15 0.0 0.0 0.00 0.00 0.00 81 1013.5
20211022115416 80 15 0.0 0.0 0.00 0.00 0.00 81 1013.5
20211022115316 80 15 0.0 0.0 0.00 0.00 0.00 81 1013.5
20211022115216 80 15 0.0 0.0 0.00 0.00 0.00 81 1013.5
20211022115016 80 15 0.0 0.0 0.00 0.00 0.00 81 1013.5
20211022114916 80 15 0.0 0.0 0.00 0.00 0.00 81 1013.5
20211022114815 80 15 0.0 0.0 0.00 0.00 0.00 81 1013.5
20211022114716 80 15 0.0 0.0 0.00 0.00 0.00 81 1013.4
20211022114615 80 15 0.0 0.0 0.00 0.00 0.00 81 1013.4
20211022114416 80 15 0.0 0.0 0.00 0.00 0.00 81 1013.4
20211022114316 80 15 0.0 0.0 0.00 0.00 0.00 81 1013.4
20211022114215 80 15 0.0 0.0 0.00 0.00 0.00 81 1013.3
20211022114116 80 15 0.0 0.0 0.00 0.00 0.00 81 1013.3
20211022114015 80 15 0.0 2.0 0.00 0.00 0.00 81 1013.3
20211022113916 80 15 0.0 2.0 0.00 0.00 0.00 81 1013.2
20211022113816 80 15 0.0 2.0 0.00 0.00 0.00 81 1013.2
20211022113716 80 15 0.0 2.0 0.00 0.00 0.00 81 1013.2
20211022113616 80 15 0.0 2.0 0.00 0.00 0.00 81 1013.2
20211022113516 80 331 0.0 0.0 0.00 0.00 0.00 81 1013.1
20211022113416 80 331 0.0 0.0 0.00 0.00 0.00 81 1013.1
20211022113316 80 331 0.0 0.0 0.00 0.00 0.00 81 1013.1
20211022113216 80 68 0.0 0.0 0.00 0.00 0.00 81 1013.1
20211022113116 80 68 0.0 0.0 0.00 0.00 0.00 81 1013.1
20211022113015 80 68 0.0 0.0 0.00 0.00 0.00 81 1013.1
20211022112917 80 68 0.0 0.0 0.00 0.00 0.00 81 1013.0
20211022112815 80 68 0.0 0.0 0.00 0.00 0.00 81 1013.0
20211022112716 80 68 0.0 0.0 0.00 0.00 0.00 81 1013.0
20211022112515 80 68 0.0 0.0 0.00 0.00 0.00 81 1012.9
20211022112416 80 68 0.0 0.0 0.00 0.00 0.00 81 1012.9
20211022112315 80 68 0.0 0.0 0.00 0.00 0.00 81 1012.9
20211022112216 80 68 0.0 0.0 0.00 0.00 0.00 81 1012.9
20211022112115 80 68 0.0 0.0 0.00 0.00 0.00 81 1012.9
20211022112016 80 68 0.0 0.0 0.00 0.00 0.00 81 1012.9
20211022111916 80 68 0.0 0.0 0.00 0.00 0.00 81 1012.9
20211022111816 80 68 0.0 0.0 0.00 0.00 0.00 81 1012.9
20211022111716 80 68 0.0 0.0 0.00 0.00 0.00 81 1012.9
20211022111516 80 68 0.0 0.0 0.00 0.00 0.00 81 1012.9
20211022111416 80 68 0.0 0.0 0.00 0.00 0.00 81 1012.9
20211022111316 80 68 0.0 0.0 0.00 0.00 0.00 81 1012.8
20211022111215 80 68 0.0 0.0 0.00 0.00 0.00 81 1012.9
20211022111117 80 68 0.0 0.0 0.00 0.00 0.00 81 1012.8
20211022111016 80 68 0.0 0.0 0.00 0.00 0.00 81 1012.8
20211022110916 80 68 0.0 0.0 0.00 0.00 0.00 81 1012.8
20211022110815 80 68 0.0 0.0 0.00 0.00 0.00 81 1012.8
20211022110715 80 68 0.0 0.0 0.00 0.00 0.00 81 1012.8
20211022110516 80 68 0.0 0.0 0.00 0.00 0.00 81 1012.8
20211022110416 80 68 0.0 0.0 0.00 0.00 0.00 81 1012.8
20211022110316 80 68 0.0 0.0 0.00 0.00 0.00 80 1012.8
20211022110216 80 68 0.0 0.0 0.00 0.00 0.00 80 1012.8
20211022110116 80 68 0.0 0.0 0.00 0.00 0.00 80 1012.8
20211022105917 80 68 0.0 0.0 0.00 0.00 0.00 80 1012.8
20211022105815 80 68 0.0 0.0 0.00 0.00 0.00 80 1012.8
20211022105716 80 68 0.0 0.0 0.00 0.00 0.00 80 1012.8
20211022105617 80 68 0.0 0.0 0.00 0.00 0.00 80 1012.8
20211022105515 80 68 0.0 0.0 0.00 0.00 0.00 80 1012.8
20211022105416 80 68 0.0 0.0 0.00 0.00 0.00 80 1012.8
20211022105315 80 68 0.0 0.0 0.00 0.00 0.00 80 1012.8
20211022105116 80 68 0.0 0.0 0.00 0.00 0.00 80 1012.8
20211022105016 80 68 0.0 0.0 0.00 0.00 0.00 80 1012.8
20211022104916 80 68 0.0 0.0 0.00 0.00 0.00 80 1012.8
20211022104816 80 68 0.0 0.0 0.00 0.00 0.00 80 1012.9
20211022104616 80 68 0.0 0.0 0.00 0.00 0.00 80 1012.9
20211022104516 80 68 0.0 0.0 0.00 0.00 0.00 80 1012.9
20211022104415 80 68 0.0 0.0 0.00 0.00 0.00 80 1012.9
20211022104215 80 68 0.0 0.0 0.00 0.00 0.00 80 1012.9
20211022104117 80 68 0.0 0.0 0.00 0.00 0.00 80 1012.9
20211022104015 80 68 0.0 0.0 0.00 0.00 0.00 80 1012.9
20211022103917 80 68 0.0 0.0 0.00 0.00 0.00 80 1012.8
20211022103815 80 68 0.0 0.0 0.00 0.00 0.00 80 1012.8
20211022103716 80 8 0.0 0.0 0.00 0.00 0.00 80 1012.8
20211022103616 80 8 0.0 0.0 0.00 0.00 0.00 80 1012.8
20211022103516 80 8 0.0 2.0 0.00 0.00 0.00 80 1012.8
20211022103416 80 8 0.0 2.0 0.00 0.00 0.00 80 1012.8
20211022103316 80 8 0.0 2.0 0.00 0.00 0.00 80 1012.8
20211022103215 81 8 0.0 2.0 0.00 0.00 0.00 80 1012.8
20211022103116 80 8 0.0 2.0 0.00 0.00 0.00 80 1012.8
20211022103016 80 8 0.0 5.0 0.00 0.00 0.00 80 1012.8
20211022102816 80 8 0.0 5.0 0.00 0.00 0.00 80 1012.8
20211022102516 80 37 0.0 5.0 0.00 0.00 0.00 80 1012.8
20211022102416 80 47 0.0 5.0 0.00 0.00 0.00 80 1012.8
20211022102316 80 19 3.0 5.0 0.00 0.00 0.00 80 1012.8
20211022102217 80 68 1.0 5.0 0.00 0.00 0.00 80 1012.8
20211022102116 80 11 3.0 5.0 0.00 0.00 0.00 80 1012.8
20211022102016 80 49 0.0 0.0 0.00 0.00 0.00 80 1012.9
20211022101916 80 53 1.0 0.0 0.00 0.00 0.00 80 1012.9
20211022101816 80 9 0.0 0.0 0.00 0.00 0.00 80 1012.8
20211022101715 80 9 0.0 0.0 0.00 0.00 0.00 80 1012.8
20211022101616 80 9 0.0 0.0 0.00 0.00 0.00 80 1012.9
20211022101515 80 9 0.0 0.0 0.00 0.00 0.00 79 1012.8
20211022101416 80 9 0.0 0.0 0.00 0.00 0.00 79 1012.8
20211022101216 80 9 0.0 0.0 0.00 0.00 0.00 79 1012.8
20211022101116 80 9 0.0 0.0 0.00 0.00 0.00 79 1012.8
20211022101016 80 9 0.0 3.0 0.00 0.00 0.00 79 1012.9
20211022100916 80 9 0.0 3.0 0.00 0.00 0.00 79 1012.9
20211022100816 80 9 0.0 3.0 0.00 0.00 0.00 79 1012.9
20211022100617 80 9 0.0 3.0 0.00 0.00 0.00 79 1013.0
20211022100416 80 70 2.0 0.0 0.00 0.00 0.00 79 1012.9
20211022100215 80 28 0.0 0.0 0.00 0.00 0.00 79 1012.9
20211022100116 80 28 0.0 0.0 0.00 0.00 0.00 79 1012.9
20211022100016 80 28 0.0 5.0 0.00 0.00 0.00 79 1012.9
20211022095915 80 28 0.0 5.0 0.00 0.00 0.00 79 1012.9
20211022095816 80 28 0.0 5.0 0.00 0.00 0.00 79 1012.9
20211022095715 80 28 0.0 5.0 0.00 0.00 0.00 79 1012.9
20211022095616 80 28 0.0 5.0 0.00 0.00 0.00 79 1012.9
20211022095515 80 28 0.0 6.0 0.00 0.00 0.00 79 1012.9
20211022095416 80 28 0.0 6.0 0.00 0.00 0.00 79 1012.9
20211022095316 80 28 0.0 6.0 0.00 0.00 0.00 79 1012.9
20211022095115 80 49 2.0 6.0 0.00 0.00 0.00 79 1012.9
20211022095016 80 18 1.0 5.0 0.00 0.00 0.00 80 1012.9
20211022094915 80 57 2.0 5.0 0.00 0.00 0.00 80 1012.8
20211022094816 80 61 0.0 5.0 0.00 0.00 0.00 80 1012.8
20211022094716 81 73 2.0 5.0 0.00 0.00 0.00 80 1012.8
20211022094516 80 12 0.0 4.0 0.00 0.00 0.00 80 1012.8
20211022094316 80 49 1.0 4.0 0.00 0.00 0.00 80 1012.8
20211022094216 80 77 3.0 4.0 0.00 0.00 0.00 80 1012.8
20211022094116 80 42 0.0 4.0 0.00 0.00 0.00 80 1012.8
20211022094016 80 42 0.0 3.0 0.00 0.00 0.00 80 1012.8
20211022093916 80 46 1.0 3.0 0.00 0.00 0.00 80 1012.8
20211022093716 80 25 0.0 3.0 0.00 0.00 0.00 80 1012.7
20211022093616 80 25 0.0 3.0 0.00 0.00 0.00 80 1012.7
20211022093516 80 25 0.0 6.0 0.00 0.00 0.00 80 1012.8
20211022093416 80 25 0.0 6.0 0.00 0.00 0.00 80 1012.7
20211022093316 80 25 0.0 6.0 0.00 0.00 0.00 80 1012.6
20211022093216 80 25 0.0 6.0 0.00 0.00 0.00 80 1012.6
20211022093017 80 18 0.0 3.0 0.00 0.00 0.00 80 1012.6
20211022092915 80 78 4.0 3.0 0.00 0.00 0.00 80 1012.7
20211022092816 80 50 1.0 3.0 0.00 0.00 0.00 80 1012.6
20211022092616 80 64 3.0 3.0 0.00 0.00 0.00 80 1012.6
20211022092516 80 21 0.0 8.0 0.00 0.00 0.00 80 1012.7
20211022092416 80 21 0.0 8.0 0.00 0.00 0.00 80 1012.7
20211022092217 80 21 0.0 8.0 0.00 0.00 0.00 80 1012.6
20211022092115 80 21 0.0 7.0 0.00 0.00 0.00 80 1012.7
20211022092017 80 59 3.0 7.0 0.00 0.00 0.00 80 1012.6
20211022091915 80 358 2.0 7.0 0.00 0.00 0.00 80 1012.6
20211022091816 80 22 4.0 7.0 0.00 0.00 0.00 80 1012.6
20211022091716 80 61 1.0 7.0 0.00 0.00 0.00 81 1012.6
20211022091615 80 71 6.0 7.0 0.00 0.00 0.00 80 1012.6
20211022091517 80 49 3.0 9.0 0.00 0.00 0.00 80 1012.5
20211022091416 80 43 1.0 9.0 0.00 0.00 0.00 80 1012.5
20211022091316 80 64 3.0 9.0 0.00 0.00 0.00 80 1012.5
20211022091215 80 67 6.0 9.0 0.00 0.00 0.00 80 1012.5
20211022091116 80 61 3.0 9.0 0.00 0.00 0.00 80 1012.6
20211022091016 80 63 8.0 8.0 0.00 0.00 0.00 80 1012.6
20211022090915 80 61 5.0 8.0 0.00 0.00 0.00 80 1012.6
20211022090817 80 73 7.0 8.0 0.00 0.00 0.00 80 1012.6
20211022090615 80 61 6.0 8.0 0.00 0.00 0.00 80 1012.7
20211022090516 80 88 4.0 8.0 0.00 0.00 0.00 80 1012.6
20211022090416 80 68 5.0 8.0 0.00 0.00 0.00 80 1012.7
20211022090316 80 81 2.0 8.0 0.00 0.00 0.00 80 1012.6
20211022090116 80 61 7.0 8.0 0.00 0.00 0.00 80 1012.7
20211022090015 80 63 3.0 7.0 0.00 0.00 0.00 80 1012.7
20211022085917 80 94 6.0 7.0 0.00 0.00 0.00 80 1012.7
20211022085815 80 57 4.0 7.0 0.00 0.00 0.00 80 1012.7
20211022085616 80 23 4.0 7.0 0.00 0.00 0.00 80 1012.7
20211022085416 80 53 5.0 7.0 0.00 0.00 0.00 79 1012.7
20211022085316 80 39 5.0 7.0 0.00 0.00 0.00 79 1012.7
20211022085217 80 68 5.0 7.0 0.00 0.00 0.00 79 1012.7
20211022085116 80 90 1.0 7.0 0.00 0.00 0.00 79 1012.7
20211022085016 80 67 6.0 5.0 0.00 0.00 0.00 79 1012.7
20211022084916 80 45 4.0 5.0 0.00 0.00 0.00 79 1012.7
20211022084815 80 80 3.0 5.0 0.00 0.00 0.00 79 1012.8
20211022084717 80 67 6.0 5.0 0.00 0.00 0.00 79 1012.7
20211022084616 80 60 5.0 5.0 0.00 0.00 0.00 79 1012.8
20211022084417 80 57 0.0 4.0 0.00 0.00 0.00 79 1012.9
20211022084215 80 57 0.0 4.0 0.00 0.00 0.00 79 1012.9
20211022084117 80 57 0.0 4.0 0.00 0.00 0.00 78 1012.9
20211022083916 80 57 0.0 6.0 0.00 0.00 0.00 78 1012.9
20211022083816 80 57 0.0 6.0 0.00 0.00 0.00 78 1012.9
20211022083616 80 63 3.0 6.0 0.00 0.00 0.00 78 1012.9
20211022083515 80 67 2.0 5.0 0.00 0.00 0.00 78 1012.9
20211022083416 80 36 2.0 5.0 0.00 0.00 0.00 78 1012.9
20211022083316 80 59 2.0 5.0 0.00 0.00 0.00 78 1012.9
20211022083215 80 52 3.0 5.0 0.00 0.00 0.00 78 1012.9
20211022083116 80 37 0.0 5.0 0.00 0.00 0.00 78 1012.9
20211022083015 80 19 1.0 7.0 0.00 0.00 0.00 78 1012.9
20211022082916 80 60 2.0 7.0 0.00 0.00 0.00 78 1013.0
20211022082815 80 68 4.0 7.0 0.00 0.00 0.00 78 1012.9
20211022082716 80 70 0.0 7.0 0.00 0.00 0.00 78 1013.0
20211022082616 80 66 3.0 7.0 0.00 0.00 0.00 78 1013.0
20211022082516 80 21 2.0 8.0 0.00 0.00 0.00 78 1012.9
20211022082416 80 78 1.0 8.0 0.00 0.00 0.00 78 1013.0
20211022082316 80 74 6.0 8.0 0.00 0.00 0.00 78 1013.0
20211022082216 80 52 2.0 8.0 0.00 0.00 0.00 78 1013.0
20211022082116 80 56 4.0 8.0 0.00 0.00 0.00 78 1013.0
20211022082017 80 57 4.0 5.0 0.00 0.00 0.00 78 1013.0
20211022081917 81 74 4.0 5.0 0.00 0.00 0.00 78 1013.0
20211022081715 80 77 3.0 5.0 0.00 0.00 0.00 79 1013.1
20211022081616 80 39 4.0 5.0 0.00 0.00 0.00 79 1013.0
20211022081516 80 74 3.0 8.0 0.00 0.00 0.00 79 1013.1
20211022081417 80 66 2.0 8.0 0.00 0.00 0.00 79 1013.1
20211022081215 80 32 0.0 8.0 0.00 0.00 0.00 79 1013.1
20211022081116 81 61 4.0 8.0 0.00 0.00 0.00 79 1013.1
20211022081016 80 45 2.0 8.0 0.00 0.00 0.00 78 1013.1
20211022080716 81 338 2.0 8.0 0.00 0.00 0.00 78 1013.1
20211022080415 80 57 2.0 7.0 0.00 0.00 0.00 78 1013.0
20211022080316 80 59 5.0 7.0 0.00 0.00 0.00 78 1012.9
20211022080216 81 71 4.0 7.0 0.00 0.00 0.00 78 1012.9
20211022080116 80 45 7.0 7.0 0.00 0.00 0.00 78 1012.9
20211022080016 80 49 0.0 6.0 0.00 0.00 0.00 78 1012.9
20211022075916 80 63 2.0 6.0 0.00 0.00 0.00 78 1012.9
20211022075816 80 33 2.0 6.0 0.00 0.00 0.00 78 1012.9
20211022075715 81 40 0.0 6.0 0.00 0.00 0.00 78 1012.9
20211022075617 80 70 2.0 6.0 0.00 0.00 0.00 78 1013.0
20211022075515 80 84 4.0 8.0 0.00 0.00 0.00 78 1013.0
20211022075416 81 49 3.0 8.0 0.00 0.00 0.00 78 1013.1
20211022075316 80 42 3.0 8.0 0.00 0.00 0.00 78 1013.1
20211022075216 80 66 3.0 8.0 0.00 0.00 0.00 78 1013.1
20211022075116 81 60 0.0 8.0 0.00 0.00 0.00 78 1013.1
20211022074816 80 60 1.0 8.0 0.00 0.00 0.00 78 1013.1
20211022074615 80 57 4.0 8.0 0.00 0.00 0.00 79 1013.1
20211022074516 80 39 3.0 8.0 0.00 0.00 0.00 79 1013.1
20211022074416 81 37 3.0 8.0 0.00 0.00 0.00 79 1013.1
20211022074316 80 39 7.0 8.0 0.00 0.00 0.00 79 1013.1
20211022074216 80 29 5.0 8.0 0.00 0.00 0.00 79 1013.1
20211022074117 81 36 3.0 8.0 0.00 0.00 0.00 79 1013.1
20211022074015 81 59 6.0 8.0 0.00 0.00 0.00 79 1013.0
20211022073916 81 64 6.0 8.0 0.00 0.00 0.00 79 1013.0
20211022073815 81 52 3.0 8.0 0.00 0.00 0.00 78 1013.0
20211022073716 80 40 5.0 8.0 0.00 0.00 0.00 78 1013.1
20211022073616 81 1 5.0 8.0 0.00 0.00 0.00 78 1013.0
20211022073516 81 15 1.0 6.0 0.00 0.00 0.00 78 1013.1
20211022073416 80 19 2.0 6.0 0.00 0.00 0.00 78 1013.1
20211022073316 81 78 6.0 6.0 0.00 0.00 0.00 78 1013.1
20211022073216 81 33 2.0 6.0 0.00 0.00 0.00 78 1013.1
20211022073116 80 73 5.0 6.0 0.00 0.00 0.00 78 1013.1
20211022073016 80 63 3.0 9.0 0.00 0.00 0.00 78 1013.1
20211022072816 81 77 1.0 9.0 0.00 0.00 0.00 78 1013.1
20211022072715 81 66 6.0 9.0 0.00 0.00 0.00 78 1013.1
20211022072516 81 95 4.0 9.0 0.00 0.00 0.00 78 1013.1
20211022072416 81 71 5.0 9.0 0.00 0.00 0.00 78 1013.1
20211022072316 81 49 3.0 9.0 0.00 0.00 0.00 78 1013.1
20211022072216 81 42 3.0 9.0 0.00 0.00 0.00 78 1013.1
20211022072116 81 71 5.0 9.0 0.00 0.00 0.00 78 1013.2
20211022072015 81 50 2.0 9.0 0.00 0.00 0.00 78 1013.2
20211022071816 81 50 7.0 9.0 0.00 0.00 0.00 78 1013.2
20211022071715 81 67 6.0 9.0 0.00 0.00 0.00 78 1013.2
20211022071617 81 94 1.0 9.0 0.00 0.00 0.00 78 1013.2
20211022071515 81 80 5.0 11.0 0.00 0.00 0.00 78 1013.3
20211022071416 81 63 6.0 11.0 0.00 0.00 0.00 78 1013.3
20211022071215 81 52 3.0 11.0 0.00 0.00 0.00 78 1013.3
20211022071016 81 23 3.0 9.0 0.00 0.00 0.00 78 1013.3
20211022070916 81 22 7.0 9.0 0.00 0.00 0.00 78 1013.3
20211022070816 81 74 4.0 9.0 0.00 0.00 0.00 78 1013.3
20211022070716 81 59 5.0 9.0 0.00 0.00 0.00 77 1013.4
20211022070416 81 49 5.0 8.0 0.00 0.00 0.00 77 1013.4
20211022070316 81 50 2.0 8.0 0.00 0.00 0.00 77 1013.4
20211022070115 80 75 4.0 8.0 0.00 0.00 0.00 77 1013.4
20211022070017 81 80 7.0 7.0 0.00 0.00 0.00 77 1013.4
20211022065916 81 102 6.0 7.0 0.00 0.00 0.00 77 1013.4
20211022065716 81 61 3.0 7.0 0.00 0.00 0.00 77 1013.5
20211022065617 81 53 7.0 7.0 0.00 0.00 0.00 77 1013.5
20211022065516 81 45 3.0 6.0 0.00 0.00 0.00 77 1013.5
20211022065316 81 67 5.0 6.0 0.00 0.00 0.00 77 1013.6
20211022065216 81 28 0.0 6.0 0.00 0.00 0.00 76 1013.6
20211022065117 81 28 0.0 6.0 0.00 0.00 0.00 76 1013.6
20211022064916 81 28 0.0 8.0 0.00 0.00 0.00 76 1013.6
20211022064816 81 28 0.0 8.0 0.00 0.00 0.00 76 1013.7
20211022064717 81 28 1.0 8.0 0.00 0.00 0.00 76 1013.6
20211022064516 81 87 1.0 8.0 0.00 0.00 0.00 76 1013.7
20211022064316 81 54 4.0 8.0 0.00 0.00 0.00 76 1013.8
20211022064216 81 7 5.0 8.0 0.00 0.00 0.00 76 1013.8
20211022064116 81 43 5.0 8.0 0.00 0.00 0.00 76 1013.7
20211022064016 81 46 4.0 8.0 0.00 0.00 0.00 76 1013.8
20211022063917 81 56 4.0 8.0 0.00 0.00 0.00 76 1013.8
20211022063816 81 14 1.0 8.0 0.00 0.00 0.00 76 1013.8
20211022063716 81 42 3.0 8.0 0.00 0.00 0.00 76 1013.8
20211022063615 81 57 5.0 8.0 0.00 0.00 0.00 76 1013.8
20211022063516 81 46 6.0 10.0 0.00 0.00 0.00 76 1013.9
20211022063315 81 53 4.0 10.0 0.00 0.00 0.00 76 1013.8
20211022063216 81 26 5.0 10.0 0.00 0.00 0.00 76 1013.9
20211022063115 81 81 3.0 10.0 0.00 0.00 0.00 76 1013.9
20211022063016 81 56 6.0 0.0 0.00 0.00 0.00 76 1013.9
20211022062916 81 74 0.0 0.0 0.00 0.00 0.00 76 1013.9
20211022062716 81 74 0.0 0.0 0.00 0.00 0.00 76 1014.0
20211022062516 81 74 0.0 0.0 0.00 0.00 0.00 76 1014.0
20211022062415 81 74 0.0 0.0 0.00 0.00 0.00 76 1014.1
20211022062015 81 74 0.0 7.0 0.00 0.00 0.00 75 1014.1
20211022061816 81 74 0.0 7.0 0.00 0.00 0.00 75 1014.1
20211022061716 81 74 0.0 7.0 0.00 0.00 0.00 75 1014.1
20211022061516 81 74 0.0 10.0 0.00 0.00 0.00 75 1014.1
20211022061415 81 60 5.0 10.0 0.00 0.00 0.00 75 1014.1
20211022061316 81 19 0.0 10.0 0.00 0.00 0.00 75 1014.1
20211022061217 81 67 4.0 10.0 0.00 0.00 0.00 75 1014.1
20211022061116 81 64 3.0 10.0 0.00 0.00 0.00 75 1014.1
20211022061016 81 63 3.0 9.0 0.00 0.00 0.00 74 1014.1
20211022060916 81 88 2.0 9.0 0.00 0.00 0.00 75 1014.1
20211022060816 81 64 7.0 9.0 0.00 0.00 0.00 74 1014.1
20211022060716 81 105 5.0 9.0 0.00 0.00 0.00 74 1014.2
20211022060615 81 68 5.0 9.0 0.00 0.00 0.00 74 1014.2
20211022060516 81 25 4.0 12.0 0.00 0.00 0.00 74 1014.2
20211022060315 81 78 7.0 12.0 0.00 0.00 0.00 74 1014.2
20211022060216 81 71 5.0 12.0 0.00 0.00 0.00 74 1014.2
20211022060117 81 92 3.0 12.0 0.00 0.00 0.00 74 1014.2
20211022060016 81 64 5.0 10.0 0.00 0.00 0.00 74 1014.2
20211022055815 81 57 5.0 10.0 0.00 0.00 0.00 74 1014.2
20211022055716 81 23 5.0 10.0 0.00 0.00 0.00 74 1014.2
20211022055616 81 47 8.0 10.0 0.00 0.00 0.00 74 1014.2
20211022055516 81 52 9.0 10.0 0.00 0.00 0.00 74 1014.2
20211022055417 81 64 5.0 10.0 0.00 0.00 0.00 74 1014.2
20211022055316 81 37 3.0 10.0 0.00 0.00 0.00 73 1014.2
20211022055216 81 95 6.0 10.0 0.00 0.00 0.00 73 1014.2
20211022055116 81 333 3.0 10.0 0.00 0.00 0.00 73 1014.2
20211022054917 81 71 1.0 9.0 0.00 0.00 0.00 73 1014.1
20211022054815 81 70 6.0 9.0 0.00 0.00 0.00 73 1014.1
20211022054716 81 47 6.0 9.0 0.00 0.00 0.00 73 1014.1
20211022054615 81 68 4.0 8.0 0.00 0.00 0.00 72 1014.1
20211022054516 81 64 2.0 8.0 0.00 0.00 0.00 72 1014.2
20211022054416 81 61 5.0 8.0 0.00 0.00 0.00 72 1014.2
20211022054316 81 43 3.0 8.0 0.00 0.00 0.00 72 1014.2
20211022054217 81 82 5.0 8.0 0.00 0.00 0.00 72 1014.2
20211022054115 81 11 4.0 8.0 0.00 0.00 0.00 72 1014.2
20211022054017 81 60 3.0 10.0 0.00 0.00 0.00 72 1014.2
20211022053916 81 73 5.0 10.0 0.00 0.00 0.00 72 1014.2
20211022053616 81 40 3.0 10.0 0.00 0.00 0.00 72 1014.2
20211022053516 81 78 4.0 10.0 0.00 0.00 0.00 72 1014.2
20211022053416 81 82 7.0 10.0 0.00 0.00 0.00 72 1014.2
20211022053316 81 54 5.0 10.0 0.00 0.00 0.00 72 1014.3
20211022053216 81 68 5.0 10.0 0.00 0.00 0.00 72 1014.3
20211022053115 81 54 4.0 10.0 0.00 0.00 0.00 72 1014.3
20211022053016 81 47 6.0 11.0 0.00 0.00 0.00 73 1014.4
20211022052916 81 75 6.0 11.0 0.00 0.00 0.00 73 1014.4
20211022052615 81 47 4.0 11.0 0.00 0.00 0.00 75 1014.4
20211022052516 81 80 7.0 9.0 0.00 0.00 0.00 75 1014.4
20211022052416 81 78 9.0 9.0 0.00 0.00 0.00 75 1014.3
20211022052315 81 32 6.0 9.0 0.00 0.00 0.00 76 1014.3
20211022052217 81 77 5.0 9.0 0.00 0.00 0.00 76 1014.4
20211022052115 81 0 0.0 12.0 0.00 0.00 0.00 76 1014.4
20211022051817 81 75 5.0 12.0 0.00 0.00 0.00 76 1014.4
20211022051716 81 70 7.0 12.0 0.00 0.00 0.00 76 1014.5
20211022051616 81 82 2.0 12.0 0.00 0.00 0.00 76 1014.5
20211022051516 81 73 5.0 11.0 0.00 0.00 0.00 76 1014.5
20211022051415 81 59 5.0 11.0 0.00 0.00 0.00 76 1014.5
20211022051316 81 57 7.0 11.0 0.00 0.00 0.00 76 1014.6
20211022051216 81 39 5.0 11.0 0.00 0.00 0.00 76 1014.5
20211022051116 81 63 4.0 9.0 0.00 0.00 0.00 76 1014.6
20211022051016 81 64 4.0 9.0 0.00 0.00 0.00 76 1014.6
20211022050916 81 98 3.0 9.0 0.00 0.00 0.00 76 1014.6
20211022050716 81 56 4.0 9.0 0.00 0.00 0.00 76 1014.6
20211022050615 81 80 4.0 9.0 0.00 0.00 0.00 76 1014.6
20211022050516 81 67 2.0 12.0 0.00 0.00 0.00 76 1014.6
20211022050316 81 19 1.0 12.0 0.00 0.00 0.00 76 1014.6
20211022050216 81 105 4.0 12.0 0.00 0.00 0.00 76 1014.6
20211022050116 81 82 1.0 12.0 0.00 0.00 0.00 76 1014.6
20211022050016 81 28 3.0 12.0 0.00 0.00 0.00 76 1014.6
20211022045915 81 358 8.0 12.0 0.00 0.00 0.00 76 1014.6
20211022045816 81 36 0.0 12.0 0.00 0.00 0.00 76 1014.6
20211022045715 81 1 6.0 12.0 0.00 0.00 0.00 76 1014.7
20211022045616 81 4 4.0 12.0 0.00 0.00 0.00 76 1014.7
20211022045516 81 64 4.0 10.0 0.00 0.00 0.00 76 1014.6
20211022045416 81 50 4.0 10.0 0.00 0.00 0.00 76 1014.6
20211022045315 81 33 5.0 10.0 0.00 0.00 0.00 76 1014.6
20211022045216 81 40 6.0 10.0 0.00 0.00 0.00 76 1014.6
20211022045117 81 97 4.0 10.0 0.00 0.00 0.00 76 1014.6
20211022044816 81 64 10.0 9.0 0.00 0.00 0.00 76 1014.5
20211022044715 81 75 5.0 9.0 0.00 0.00 0.00 76 1014.5
20211022044616 81 42 4.0 9.0 0.00 0.00 0.00 76 1014.5
20211022044516 81 53 6.0 9.0 0.00 0.00 0.00 76 1014.4
20211022044416 81 68 7.0 9.0 0.00 0.00 0.00 76 1014.5
20211022044315 81 28 5.0 9.0 0.00 0.00 0.00 76 1014.5
20211022044216 81 46 7.0 9.0 0.00 0.00 0.00 76 1014.5
20211022044116 81 74 7.0 9.0 0.00 0.00 0.00 76 1014.6
20211022044016 81 45 4.0 10.0 0.00 0.00 0.00 76 1014.6
20211022043916 81 343 4.0 10.0 0.00 0.00 0.00 76 1014.6
20211022043816 81 28 3.0 10.0 0.00 0.00 0.00 76 1014.6
20211022043715 81 60 4.0 10.0 0.00 0.00 0.00 76 1014.7
20211022043616 81 26 1.0 10.0 0.00 0.00 0.00 76 1014.6
20211022043516 81 358 2.0 8.0 0.00 0.00 0.00 76 1014.7
20211022043416 81 30 5.0 8.0 0.00 0.00 0.00 76 1014.7
20211022043317 81 36 6.0 8.0 0.00 0.00 0.00 76 1014.7
20211022043016 81 46 4.0 9.0 0.00 0.00 0.00 75 1014.7
20211022042915 81 92 2.0 9.0 0.00 0.00 0.00 75 1014.8
20211022042816 81 37 5.0 9.0 0.00 0.00 0.00 75 1014.8
20211022042715 81 75 4.0 9.0 0.00 0.00 0.00 75 1014.8
20211022042616 81 77 4.0 9.0 0.00 0.00 0.00 75 1014.9
20211022042517 81 26 7.0 7.0 0.00 0.00 0.00 75 1014.9
20211022042216 81 56 0.0 7.0 0.00 0.00 0.00 75 1015.0
20211022042116 81 60 4.0 7.0 0.00 0.00 0.00 75 1014.9
20211022042016 81 2 7.0 7.0 0.00 0.00 0.00 75 1014.9
20211022041716 81 8 0.0 7.0 0.00 0.00 0.00 74 1015.0
20211022041515 81 8 0.0 9.0 0.00 0.00 0.00 74 1015.0
20211022041416 81 8 0.0 9.0 0.00 0.00 0.00 74 1015.1
20211022041315 81 8 1.0 9.0 0.00 0.00 0.00 74 1015.2
20211022041216 81 40 2.0 9.0 0.00 0.00 0.00 74 1015.1
20211022041115 81 59 3.0 10.0 0.00 0.00 0.00 74 1015.1
20211022041016 81 80 1.0 10.0 0.00 0.00 0.00 74 1015.1
20211022040917 81 54 0.0 10.0 0.00 0.00 0.00 74 1015.2
20211022040816 81 73 5.0 10.0 0.00 0.00 0.00 74 1015.1
20211022040716 81 37 1.0 10.0 0.00 0.00 0.00 74 1015.1
20211022040616 81 84 4.0 10.0 0.00 0.00 0.00 74 1015.1
20211022040516 81 71 5.0 8.0 0.00 0.00 0.00 74 1015.1
20211022040416 81 81 9.0 8.0 0.00 0.00 0.00 74 1015.1
20211022040316 81 54 6.0 8.0 0.00 0.00 0.00 74 1015.0
20211022040217 81 32 3.0 8.0 0.00 0.00 0.00 74 1015.0
20211022040015 81 71 2.0 9.0 0.00 0.00 0.00 74 1015.0
20211022035916 81 54 3.0 9.0 0.00 0.00 0.00 74 1015.0
20211022035816 81 88 1.0 9.0 0.00 0.00 0.00 75 1015.0
20211022035715 81 23 1.0 9.0 0.00 0.00 0.00 75 1015.1
20211022035616 81 68 3.0 9.0 0.00 0.00 0.00 75 1015.0
20211022035416 81 42 3.0 10.0 0.00 0.00 0.00 75 1015.0
20211022035316 81 92 5.0 10.0 0.00 0.00 0.00 75 1015.0
20211022035216 81 30 2.0 10.0 0.00 0.00 0.00 75 1015.0
20211022035116 81 71 6.0 10.0 0.00 0.00 0.00 75 1015.0
20211022035016 81 25 6.0 10.0 0.00 0.00 0.00 75 1015.1
20211022034915 81 49 3.0 10.0 0.00 0.00 0.00 75 1015.1
20211022034816 81 64 4.0 10.0 0.00 0.00 0.00 75 1015.1
20211022034716 81 60 7.0 10.0 0.00 0.00 0.00 75 1015.1
20211022034617 81 71 4.0 10.0 0.00 0.00 0.00 75 1015.1
20211022034516 81 90 3.0 11.0 0.00 0.00 0.00 75 1015.1
20211022034416 81 43 1.0 11.0 0.00 0.00 0.00 75 1015.1
20211022034116 81 56 7.0 11.0 0.00 0.00 0.00 75 1015.2
20211022034016 81 95 5.0 11.0 0.00 0.00 0.00 75 1015.1
20211022033915 81 57 8.0 11.0 0.00 0.00 0.00 74 1015.2
20211022033816 81 74 5.0 11.0 0.00 0.00 0.00 74 1015.2
20211022033616 81 56 4.0 11.0 0.00 0.00 0.00 74 1015.2
20211022033516 81 73 3.0 11.0 0.00 0.00 0.00 74 1015.2
20211022033416 81 61 2.0 11.0 0.00 0.00 0.00 74 1015.2
20211022033316 81 63 4.0 11.0 0.00 0.00 0.00 74 1015.2
20211022033215 81 67 9.0 11.0 0.00 0.00 0.00 74 1015.3
20211022033116 81 54 6.0 11.0 0.00 0.00 0.00 74 1015.3
20211022033017 81 80 3.0 8.0 0.00 0.00 0.00 74 1015.3
20211022032916 81 54 2.0 8.0 0.00 0.00 0.00 74 1015.3
20211022032816 81 9 4.0 8.0 0.00 0.00 0.00 74 1015.4
20211022032715 81 64 7.0 8.0 0.00 0.00 0.00 74 1015.3
20211022032616 81 85 3.0 8.0 0.00 0.00 0.00 74 1015.4
20211022032515 81 29 8.0 9.0 0.00 0.00 0.00 74 1015.4
20211022032317 81 12 2.0 9.0 0.00 0.00 0.00 74 1015.4
20211022032215 81 60 2.0 9.0 0.00 0.00 0.00 74 1015.4
20211022032116 81 75 6.0 9.0 0.00 0.00 0.00 74 1015.4
20211022032016 81 11 1.0 9.0 0.00 0.00 0.00 74 1015.4
20211022031916 81 71 0.0 9.0 0.00 0.00 0.00 73 1015.4
20211022031815 81 28 1.0 9.0 0.00 0.00 0.00 73 1015.5
20211022031717 81 52 4.0 9.0 0.00 0.00 0.00 73 1015.5
20211022031615 81 53 3.0 9.0 0.00 0.00 0.00 73 1015.4
20211022031516 81 73 6.0 10.0 0.00 0.00 0.00 73 1015.5
20211022031415 81 2 0.0 10.0 0.00 0.00 0.00 73 1015.5
20211022031316 81 30 7.0 10.0 0.00 0.00 0.00 73 1015.6
20211022031216 81 66 2.0 10.0 0.00 0.00 0.00 73 1015.6
20211022031116 81 53 5.0 11.0 0.00 0.00 0.00 73 1015.6
20211022031017 81 47 8.0 11.0 0.00 0.00 0.00 73 1015.6
20211022030916 81 43 7.0 11.0 0.00 0.00 0.00 73 1015.6
20211022030816 81 70 2.0 11.0 0.00 0.00 0.00 73 1015.6
20211022030716 81 82 6.0 11.0 0.00 0.00 0.00 73 1015.7
20211022030516 81 11 1.0 0.0 0.00 0.00 0.00 73 1015.7
20211022030316 81 80 5.0 0.0 0.00 0.00 0.00 73 1015.7
20211022030215 81 59 0.0 0.0 0.00 0.00 0.00 73 1015.7
20211022030117 81 59 0.0 0.0 0.00 0.00 0.00 73 1015.8
20211022030016 81 59 0.0 6.0 0.00 0.00 0.00 72 1015.7
20211022025915 81 59 0.0 6.0 0.00 0.00 0.00 72 1015.7
20211022025716 81 59 0.0 6.0 0.00 0.00 0.00 72 1015.8
20211022025616 81 59 0.0 6.0 0.00 0.00 0.00 72 1015.7
20211022025516 81 59 0.0 8.0 0.00 0.00 0.00 72 1015.7
20211022025416 81 74 4.0 8.0 0.00 0.00 0.00 72 1015.7
20211022025317 81 45 1.0 8.0 0.00 0.00 0.00 72 1015.7
20211022025215 81 73 2.0 8.0 0.00 0.00 0.00 72 1015.7
20211022025116 81 50 2.0 8.0 0.00 0.00 0.00 72 1015.7
20211022025015 81 26 5.0 8.0 0.00 0.00 0.00 72 1015.7
20211022024816 81 81 5.0 8.0 0.00 0.00 0.00 72 1015.7
20211022024715 81 78 4.0 8.0 0.00 0.00 0.00 72 1015.7
20211022024616 81 64 0.0 8.0 0.00 0.00 0.00 72 1015.7
20211022024516 81 81 5.0 8.0 0.00 0.00 0.00 72 1015.7
20211022024316 81 30 4.0 8.0 0.00 0.00 0.00 72 1015.8
20211022024215 81 63 7.0 8.0 0.00 0.00 0.00 72 1015.8
20211022024116 81 82 2.0 8.0 0.00 0.00 0.00 72 1015.8
20211022024016 81 52 3.0 8.0 0.00 0.00 0.00 72 1015.8
20211022023916 81 67 5.0 8.0 0.00 0.00 0.00 72 1015.8
20211022023816 81 39 5.0 8.0 0.00 0.00 0.00 72 1015.8
20211022023616 81 22 1.0 8.0 0.00 0.00 0.00 72 1015.9
20211022023516 81 43 4.0 7.0 0.00 0.00 0.00 72 1015.9
20211022023417 81 23 2.0 7.0 0.00 0.00 0.00 72 1015.9
20211022023217 81 15 3.0 7.0 0.00 0.00 0.00 72 1015.9
20211022023115 81 64 6.0 7.0 0.00 0.00 0.00 72 1015.9
20211022023016 81 36 0.0 7.0 0.00 0.00 0.00 72 1015.9
20211022022916 81 36 0.0 7.0 0.00 0.00 0.00 71 1015.9
20211022022815 81 71 2.0 7.0 0.00 0.00 0.00 71 1015.9
20211022022716 81 35 3.0 7.0 0.00 0.00 0.00 71 1015.9
20211022022616 81 68 2.0 7.0 0.00 0.00 0.00 71 1015.9
20211022022516 81 85 3.0 9.0 0.00 0.00 0.00 71 1016.0
20211022022415 81 75 3.0 9.0 0.00 0.00 0.00 71 1015.9
20211022022316 81 84 4.0 9.0 0.00 0.00 0.00 71 1016.0
20211022022215 81 47 3.0 9.0 0.00 0.00 0.00 71 1015.9
20211022022015 81 63 2.0 10.0 0.00 0.00 0.00 71 1016.0
20211022021916 81 46 3.0 10.0 0.00 0.00 0.00 71 1016.0
20211022021817 81 12 5.0 10.0 0.00 0.00 0.00 71 1016.0
20211022021715 81 82 6.0 10.0 0.00 0.00 0.00 71 1016.0
20211022021616 81 50 5.0 10.0 0.00 0.00 0.00 71 1016.0
20211022021515 81 60 6.0 8.0 0.00 0.00 0.00 71 1016.0
20211022021416 81 50 5.0 8.0 0.00 0.00 0.00 71 1016.0
20211022021316 81 358 4.0 8.0 0.00 0.00 0.00 71 1016.0
20211022021216 81 90 4.0 8.0 0.00 0.00 0.00 71 1016.0
20211022021117 81 78 4.0 11.0 0.00 0.00 0.00 71 1016.0
20211022021016 81 74 2.0 11.0 0.00 0.00 0.00 71 1016.0
20211022020916 81 57 7.0 11.0 0.00 0.00 0.00 71 1016.0
20211022020816 81 32 3.0 11.0 0.00 0.00 0.00 71 1016.1
20211022020715 81 56 0.0 11.0 0.00 0.00 0.00 70 1016.1
20211022020616 81 82 5.0 11.0 0.00 0.00 0.00 70 1016.0
20211022020516 81 75 4.0 9.0 0.00 0.00 0.00 70 1016.1
20211022020417 81 47 6.0 9.0 0.00 0.00 0.00 70 1016.1
20211022020216 81 50 9.0 9.0 0.00 0.00 0.00 70 1016.1
20211022020116 81 56 5.0 9.0 0.00 0.00 0.00 70 1016.1
20211022015915 81 21 6.0 10.0 0.00 0.00 0.00 70 1016.1
20211022015816 81 52 3.0 10.0 0.00 0.00 0.00 70 1016.1
20211022015716 81 90 7.0 10.0 0.00 0.00 0.00 70 1016.1
20211022015616 81 45 4.0 10.0 0.00 0.00 0.00 70 1016.1
20211022015516 81 75 8.0 9.0 0.00 0.00 0.00 70 1016.1
20211022015417 81 70 5.0 9.0 0.00 0.00 0.00 70 1016.1
20211022015315 81 67 6.0 9.0 0.00 0.00 0.00 70 1016.1
20211022015216 81 75 4.0 9.0 0.00 0.00 0.00 70 1016.1
20211022015116 82 36 4.0 9.0 0.00 0.00 0.00 70 1016.1
20211022015015 81 36 7.0 10.0 0.00 0.00 0.00 70 1016.1
20211022014816 81 77 4.0 10.0 0.00 0.00 0.00 69 1016.1
20211022014715 81 63 5.0 10.0 0.00 0.00 0.00 69 1016.1
20211022014516 81 358 3.0 12.0 0.00 0.00 0.00 69 1016.1
20211022014416 81 80 5.0 12.0 0.00 0.00 0.00 69 1016.1
20211022014316 82 29 3.0 12.0 0.00 0.00 0.00 69 1016.1
20211022014216 81 82 9.0 12.0 0.00 0.00 0.00 69 1016.1
20211022014116 81 49 6.0 12.0 0.00 0.00 0.00 69 1016.2
20211022014016 81 82 6.0 10.0 0.00 0.00 0.00 69 1016.1
20211022013916 81 70 7.0 10.0 0.00 0.00 0.00 68 1016.2
20211022013816 82 54 7.0 10.0 0.00 0.00 0.00 68 1016.2
20211022013715 81 43 6.0 10.0 0.00 0.00 0.00 68 1016.1
20211022013616 82 46 4.0 11.0 0.00 0.00 0.00 68 1016.1
20211022013516 81 67 5.0 11.0 0.00 0.00 0.00 68 1016.1
20211022013415 82 74 4.0 11.0 0.00 0.00 0.00 68 1016.1
20211022013316 81 60 5.0 11.0 0.00 0.00 0.00 68 1016.1
20211022013215 81 68 7.0 11.0 0.00 0.00 0.00 68 1016.1
20211022013116 82 77 7.0 11.0 0.00 0.00 0.00 68 1016.1
20211022013016 81 56 6.0 10.0 0.00 0.00 0.00 68 1016.1
20211022012917 81 92 6.0 10.0 0.00 0.00 0.00 68 1016.1
20211022012816 81 57 8.0 10.0 0.00 0.00 0.00 68 1016.2
20211022012716 82 29 2.0 10.0 0.00 0.00 0.00 68 1016.2
20211022012616 81 45 4.0 10.0 0.00 0.00 0.00 68 1016.2
20211022012516 82 37 4.0 12.0 0.00 0.00 0.00 68 1016.2
20211022012316 82 74 6.0 12.0 0.00 0.00 0.00 68 1016.2
20211022012215 81 47 6.0 12.0 0.00 0.00 0.00 68 1016.2
20211022012015 82 45 2.0 9.0 0.00 0.00 0.00 68 1016.1
20211022011916 82 91 5.0 9.0 0.00 0.00 0.00 68 1016.2
20211022011816 82 78 7.0 9.0 0.00 0.00 0.00 68 1016.2
20211022011615 81 61 4.0 9.0 0.00 0.00 0.00 68 1016.2
20211022011516 81 53 2.0 10.0 0.00 0.00 0.00 68 1016.2
20211022011416 81 70 5.0 10.0 0.00 0.00 0.00 68 1016.2
20211022011316 81 42 4.0 10.0 0.00 0.00 0.00 67 1016.2
20211022011217 81 57 4.0 10.0 0.00 0.00 0.00 67 1016.1
20211022011116 81 61 3.0 9.0 0.00 0.00 0.00 67 1016.1
20211022011017 82 68 7.0 9.0 0.00 0.00 0.00 67 1016.0
20211022010915 81 39 3.0 9.0 0.00 0.00 0.00 67 1016.1
20211022010817 82 11 7.0 9.0 0.00 0.00 0.00 67 1016.1
20211022010715 81 59 4.0 9.0 0.00 0.00 0.00 67 1016.0
20211022010316 81 85 9.0 11.0 0.00 0.00 0.00 67 1015.9
20211022010215 81 59 3.0 11.0 0.00 0.00 0.00 67 1016.0
20211022010015 82 25 7.0 8.0 0.00 0.00 0.00 67 1015.9
20211022005816 82 60 11.0 8.0 0.00 0.00 0.00 67 1016.0
20211022005715 81 12 0.0 8.0 0.00 0.00 0.00 67 1015.9
20211022005616 82 42 5.0 8.0 0.00 0.00 0.00 67 1016.0
20211022005515 82 61 5.0 10.0 0.00 0.00 0.00 67 1015.9
20211022005316 81 15 1.0 10.0 0.00 0.00 0.00 67 1015.9
20211022005216 81 60 4.0 10.0 0.00 0.00 0.00 67 1015.9
20211022005116 82 61 3.0 10.0 0.00 0.00 0.00 67 1015.8
20211022005016 81 43 5.0 8.0 0.00 0.00 0.00 67 1015.8
20211022004916 82 60 4.0 8.0 0.00 0.00 0.00 67 1015.8
20211022004715 81 84 8.0 8.0 0.00 0.00 0.00 67 1015.7
20211022004616 82 53 4.0 8.0 0.00 0.00 0.00 68 1015.7
20211022004515 81 66 7.0 11.0 0.00 0.00 0.00 68 1015.7
20211022004317 82 59 4.0 11.0 0.00 0.00 0.00 68 1015.7
20211022004215 82 42 3.0 11.0 0.00 0.00 0.00 68 1015.6
20211022004116 82 54 5.0 11.0 0.00 0.00 0.00 68 1015.6
20211022003915 82 71 7.0 10.0 0.00 0.00 0.00 68 1015.6
20211022003816 81 54 7.0 10.0 0.00 0.00 0.00 68 1015.6
20211022003716 82 67 6.0 10.0 0.00 0.00 0.00 68 1015.6
20211022003516 82 71 3.0 10.0 0.00 0.00 0.00 68 1015.6
20211022003316 82 64 4.0 10.0 0.00 0.00 0.00 68 1015.6
20211022003216 81 42 5.0 10.0 0.00 0.00 0.00 68 1015.6
20211022003117 81 47 5.0 10.0 0.00 0.00 0.00 68 1015.6
20211022003016 82 39 3.0 12.0 0.00 0.00 0.00 68 1015.6
20211022002917 82 66 3.0 12.0 0.00 0.00 0.00 67 1015.6
20211022002816 81 45 5.0 12.0 0.00 0.00 0.00 67 1015.6
20211022002516 81 75 6.0 10.0 0.00 0.00 0.00 67 1015.5
20211022002316 82 98 7.0 10.0 0.00 0.00 0.00 67 1015.4
20211022002215 82 53 6.0 10.0 0.00 0.00 0.00 67 1015.4
20211022002116 82 84 4.0 10.0 0.00 0.00 0.00 67 1015.4
20211022002015 82 78 1.0 9.0 0.00 0.00 0.00 67 1015.4
20211022001916 81 80 5.0 9.0 0.00 0.00 0.00 67 1015.4
20211022001816 82 84 4.0 9.0 0.00 0.00 0.00 67 1015.4
20211022001716 81 70 4.0 9.0 0.00 0.00 0.00 67 1015.3
20211022001516 82 64 4.0 12.0 0.00 0.00 0.00 67 1015.4
20211022001415 82 84 7.0 12.0 0.00 0.00 0.00 67 1015.3
20211022001316 82 26 7.0 12.0 0.00 0.00 0.00 67 1015.3
20211022001116 81 59 7.0 12.0 0.00 0.00 0.00 67 1015.2
20211022001015 82 63 7.0 12.0 0.00 0.00 0.00 67 1015.2
20211022000816 81 358 7.0 12.0 0.00 0.00 0.00 67 1015.2
20211022000716 82 63 7.0 12.0 0.00 0.00 0.00 67 1015.1
20211022000616 81 67 3.0 12.0 0.00 0.00 0.00 67 1015.1
20211022000516 82 61 6.0 11.0 0.00 0.00 0.00 67 1015.1
20211022000218 82 68 6.0 11.0 0.00 0.00 0.00 67 1015.1
20211022000116 82 80 9.0 11.0 0.00 0.00 0.00 67 1015.1
20211021235916 82 75 2.0 8.0 0.00 0.00 0.00 67 1015.1
20211021235816 82 45 5.0 8.0 0.00 0.00 0.00 67 1015.1
20211021235717 82 78 7.0 8.0 0.00 0.00 0.00 67 1015.1
20211021235515 82 70 0.0 9.0 0.00 0.00 0.00 67 1015.0
20211021235416 82 70 2.0 9.0 0.00 0.00 0.00 67 1015.0
20211021235316 82 95 3.0 9.0 0.00 0.00 0.00 67 1015.0
20211021235216 82 78 4.0 9.0 0.00 0.00 0.00 67 1015.0
20211021235016 81 25 8.0 10.0 0.00 0.00 0.00 67 1015.0
20211021234916 82 54 7.0 10.0 0.00 0.00 0.00 67 1015.0
20211021234816 82 80 6.0 10.0 0.00 0.00 0.00 67 1015.0
20211021234616 82 64 7.0 10.0 0.00 0.00 0.00 67 1014.9
20211021234517 82 68 8.0 10.0 0.00 0.00 0.00 67 1014.9
20211021234416 82 77 5.0 10.0 0.00 0.00 0.00 67 1015.0
20211021234316 82 50 4.0 10.0 0.00 0.00 0.00 67 1014.9
20211021234116 82 71 6.0 10.0 0.00 0.00 0.00 67 1014.9
20211021234016 82 63 9.0 11.0 0.00 0.00 0.00 67 1014.9
20211021233916 82 36 4.0 11.0 0.00 0.00 0.00 66 1014.9
20211021233817 82 50 5.0 11.0 0.00 0.00 0.00 66 1014.9
20211021233717 82 47 7.0 11.0 0.00 0.00 0.00 66 1014.9
20211021233616 82 87 0.0 9.0 0.00 0.00 0.00 66 1014.9
20211021233516 82 87 0.0 9.0 0.00 0.00 0.00 66 1014.9
20211021233417 82 60 5.0 9.0 0.00 0.00 0.00 66 1014.9
20211021233316 82 70 5.0 9.0 0.00 0.00 0.00 66 1014.8
20211021233217 82 59 5.0 9.0 0.00 0.00 0.00 66 1014.9
20211021233116 82 52 3.0 9.0 0.00 0.00 0.00 66 1014.8
20211021233016 82 39 6.0 12.0 0.00 0.00 0.00 66 1014.8
20211021232817 82 37 3.0 12.0 0.00 0.00 0.00 66 1014.8
20211021232715 82 39 0.0 12.0 0.00 0.00 0.00 66 1014.7
20211021232616 82 74 4.0 12.0 0.00 0.00 0.00 66 1014.7
20211021232516 82 42 2.0 10.0 0.00 0.00 0.00 66 1014.7
20211021232416 82 49 7.0 10.0 0.00 0.00 0.00 66 1014.8
20211021232316 82 57 5.0 10.0 0.00 0.00 0.00 66 1014.8
20211021232116 82 71 3.0 10.0 0.00 0.00 0.00 66 1014.8
20211021231915 82 60 1.0 10.0 0.00 0.00 0.00 66 1014.8
20211021231817 82 71 7.0 10.0 0.00 0.00 0.00 66 1014.8
20211021231715 82 77 5.0 10.0 0.00 0.00 0.00 66 1014.8
20211021231616 82 63 5.0 10.0 0.00 0.00 0.00 66 1014.8
20211021231516 82 74 4.0 10.0 0.00 0.00 0.00 66 1014.8
20211021231416 82 85 7.0 10.0 0.00 0.00 0.00 66 1014.8
20211021231315 82 73 0.0 10.0 0.00 0.00 0.00 66 1014.7
20211021231216 82 73 3.0 10.0 0.00 0.00 0.00 66 1014.7
20211021230716 82 350 4.0 15.0 0.00 0.00 0.00 65 1014.7
20211021230516 82 57 12.0 14.0 0.00 0.00 0.00 66 1014.7
20211021230216 82 64 7.0 14.0 0.00 0.00 0.00 66 1014.7
20211021230116 82 36 6.0 14.0 0.00 0.00 0.00 66 1014.7
20211021230016 82 25 7.0 11.0 0.00 0.00 0.00 66 1014.7
20211021225916 82 54 6.0 11.0 0.00 0.00 0.00 66 1014.7
20211021225816 82 35 3.0 11.0 0.00 0.00 0.00 66 1014.7
20211021225716 82 70 7.0 11.0 0.00 0.00 0.00 66 1014.7
20211021225615 82 32 2.0 11.0 0.00 0.00 0.00 66 1014.7
20211021225516 82 46 5.0 11.0 0.00 0.00 0.00 66 1014.7
20211021225316 82 66 11.0 11.0 0.00 0.00 0.00 66 1014.7
20211021225216 82 64 6.0 11.0 0.00 0.00 0.00 66 1014.7
20211021225116 82 71 4.0 11.0 0.00 0.00 0.00 66 1014.7
20211021225016 82 61 6.0 12.0 0.00 0.00 0.00 66 1014.8
20211021224915 82 70 5.0 12.0 0.00 0.00 0.00 66 1014.7
20211021224816 82 11 4.0 12.0 0.00 0.00 0.00 65 1014.7
20211021224616 82 102 0.0 14.0 0.00 0.00 0.00 65 1014.7
20211021224516 82 46 3.0 14.0 0.00 0.00 0.00 65 1014.7
20211021224415 82 74 8.0 14.0 0.00 0.00 0.00 65 1014.8
20211021224217 82 90 4.0 14.0 0.00 0.00 0.00 65 1014.8
20211021224116 82 49 2.0 14.0 0.00 0.00 0.00 65 1014.8
20211021224017 82 47 10.0 13.0 0.00 0.00 0.00 65 1014.8
20211021223915 82 77 5.0 13.0 0.00 0.00 0.00 65 1014.8
20211021223816 82 47 5.0 13.0 0.00 0.00 0.00 65 1014.8
20211021223615 82 60 8.0 12.0 0.00 0.00 0.00 65 1014.8
20211021223416 82 84 8.0 12.0 0.00 0.00 0.00 66 1014.8
20211021223116 82 59 10.0 12.0 0.00 0.00 0.00 65 1014.8
20211021223016 82 46 10.0 13.0 0.00 0.00 0.00 65 1014.9
20211021222916 82 74 7.0 13.0 0.00 0.00 0.00 65 1014.9
20211021222816 82 54 9.0 13.0 0.00 0.00 0.00 65 1014.9
20211021222717 82 80 6.0 13.0 0.00 0.00 0.00 65 1014.8
20211021222616 82 66 4.0 13.0 0.00 0.00 0.00 65 1014.9
20211021222516 82 43 6.0 14.0 0.00 0.00 0.00 65 1014.8
20211021222416 82 57 9.0 14.0 0.00 0.00 0.00 65 1014.8
20211021222316 82 75 9.0 14.0 0.00 0.00 0.00 65 1014.8
20211021222216 82 63 9.0 14.0 0.00 0.00 0.00 65 1014.9
20211021222017 82 53 7.0 15.0 0.00 0.00 0.00 65 1014.9
20211021221916 82 85 5.0 15.0 0.00 0.00 0.00 65 1014.8
20211021221816 82 57 6.0 15.0 0.00 0.00 0.00 65 1014.9
20211021221715 82 45 7.0 15.0 0.00 0.00 0.00 65 1014.8
20211021221516 82 74 8.0 16.0 0.00 0.00 0.00 65 1014.8
20211021221416 82 61 6.0 16.0 0.00 0.00 0.00 65 1014.9
20211021221316 82 50 6.0 16.0 0.00 0.00 0.00 64 1014.9
20211021221215 83 73 9.0 16.0 0.00 0.00 0.00 64 1014.9
20211021221116 83 78 7.0 14.0 0.00 0.00 0.00 64 1014.9
20211021221016 82 70 6.0 14.0 0.00 0.00 0.00 64 1014.9
20211021220916 83 22 7.0 14.0 0.00 0.00 0.00 64 1014.9
20211021220715 82 60 6.0 14.0 0.00 0.00 0.00 65 1014.9
20211021220616 83 61 8.0 14.0 0.00 0.00 0.00 65 1014.9
20211021220515 82 73 9.0 14.0 0.00 0.00 0.00 65 1014.9
20211021220317 83 33 10.0 14.0 0.00 0.00 0.00 64 1014.9
20211021220116 83 63 8.0 14.0 0.00 0.00 0.00 64 1014.9
20211021220017 83 59 9.0 12.0 0.00 0.00 0.00 64 1014.9
20211021215916 83 56 4.0 12.0 0.00 0.00 0.00 64 1014.9
20211021215816 83 66 8.0 12.0 0.00 0.00 0.00 64 1014.9
20211021215716 83 19 8.0 12.0 0.00 0.00 0.00 64 1014.9
20211021215616 82 81 2.0 13.0 0.00 0.00 0.00 64 1014.9
20211021215516 83 32 6.0 13.0 0.00 0.00 0.00 64 1014.8
20211021215315 83 59 5.0 13.0 0.00 0.00 0.00 64 1014.8
20211021215216 83 78 6.0 13.0 0.00 0.00 0.00 64 1014.8
20211021215115 83 53 5.0 13.0 0.00 0.00 0.00 64 1014.8
20211021215016 83 60 11.0 11.0 0.00 0.00 0.00 64 1014.8
20211021214916 83 53 7.0 11.0 0.00 0.00 0.00 64 1014.8
20211021214816 83 68 6.0 11.0 0.00 0.00 0.00 65 1014.9
20211021214716 83 73 8.0 11.0 0.00 0.00 0.00 64 1014.9
20211021214617 83 36 3.0 13.0 0.00 0.00 0.00 64 1014.9
20211021214516 83 67 9.0 13.0 0.00 0.00 0.00 64 1014.9
20211021214316 83 67 4.0 13.0 0.00 0.00 0.00 64 1014.9
20211021214217 83 74 7.0 13.0 0.00 0.00 0.00 64 1014.9
20211021214115 83 59 3.0 14.0 0.00 0.00 0.00 63 1014.9
20211021214016 83 67 3.0 14.0 0.00 0.00 0.00 63 1014.9
20211021213915 83 91 8.0 14.0 0.00 0.00 0.00 63 1014.9
20211021213816 83 99 5.0 14.0 0.00 0.00 0.00 63 1014.9
20211021213715 83 54 10.0 14.0 0.00 0.00 0.00 62 1014.9
20211021213616 83 87 7.0 14.0 0.00 0.00 0.00 62 1015.0
20211021213516 83 78 6.0 13.0 0.00 0.00 0.00 62 1015.0
20211021213316 83 8 8.0 13.0 0.00 0.00 0.00 62 1015.0
20211021213216 83 61 9.0 13.0 0.00 0.00 0.00 62 1014.9
20211021213116 83 66 7.0 14.0 0.00 0.00 0.00 62 1014.9
20211021212916 83 80 6.0 14.0 0.00 0.00 0.00 63 1014.9
20211021212816 83 70 7.0 14.0 0.00 0.00 0.00 63 1014.9
20211021212716 83 71 4.0 14.0 0.00 0.00 0.00 63 1014.9
20211021212616 83 46 6.0 14.0 0.00 0.00 0.00 63 1015.0
20211021212516 84 30 11.0 14.0 0.00 0.00 0.00 63 1015.0
20211021212316 83 50 8.0 14.0 0.00 0.00 0.00 63 1014.9
20211021212216 84 66 5.0 14.0 0.00 0.00 0.00 63 1015.0
20211021212116 83 97 7.0 16.0 0.00 0.00 0.00 62 1014.9
20211021211916 83 29 4.0 16.0 0.00 0.00 0.00 63 1014.9
20211021211816 83 46 6.0 16.0 0.00 0.00 0.00 63 1014.9
20211021211716 84 67 9.0 16.0 0.00 0.00 0.00 63 1014.9
20211021211516 83 46 7.0 16.0 0.00 0.00 0.00 63 1014.9
20211021211316 83 66 7.0 16.0 0.00 0.00 0.00 63 1014.9
20211021211217 83 66 7.0 16.0 0.00 0.00 0.00 62 1015.0
20211021211116 83 35 10.0 16.0 0.00 0.00 0.00 62 1015.0
20211021210816 83 104 7.0 15.0 0.00 0.00 0.00 63 1015.0
20211021210716 84 66 5.0 15.0 0.00 0.00 0.00 63 1015.0
20211021210616 84 50 4.0 12.0 0.00 0.00 0.00 63 1015.0
20211021210516 83 66 12.0 12.0 0.00 0.00 0.00 62 1015.0
20211021210315 84 39 5.0 12.0 0.00 0.00 0.00 62 1015.0
20211021210216 84 71 8.0 12.0 0.00 0.00 0.00 62 1015.0
20211021210115 84 85 7.0 12.0 0.00 0.00 0.00 62 1015.0
20211021205916 84 358 5.0 16.0 0.00 0.00 0.00 61 1015.0
20211021205817 84 43 9.0 16.0 0.00 0.00 0.00 61 1015.0
20211021205716 84 78 7.0 16.0 0.00 0.00 0.00 61 1015.0
20211021205616 84 42 5.0 19.0 0.00 0.00 0.00 61 1015.0
20211021205516 84 56 8.0 19.0 0.00 0.00 0.00 61 1015.0
20211021205416 84 73 7.0 19.0 0.00 0.00 0.00 61 1015.0
20211021205316 84 74 6.0 19.0 0.00 0.00 0.00 62 1014.9
20211021205216 84 52 9.0 19.0 0.00 0.00 0.00 62 1014.9
20211021205116 84 7 9.0 19.0 0.00 0.00 0.00 62 1014.9
20211021205016 84 64 6.0 16.0 0.00 0.00 0.00 62 1014.8
20211021204916 84 33 8.0 16.0 0.00 0.00 0.00 61 1014.9
20211021204817 84 70 9.0 16.0 0.00 0.00 0.00 61 1014.9
20211021204716 84 71 8.0 16.0 0.00 0.00 0.00 62 1014.8
20211021204616 84 43 14.0 16.0 0.00 0.00 0.00 62 1014.9
20211021204517 84 15 8.0 14.0 0.00 0.00 0.00 63 1014.8
20211021204415 84 39 7.0 14.0 0.00 0.00 0.00 63 1014.9
20211021204316 84 74 8.0 14.0 0.00 0.00 0.00 62 1014.8
20211021204216 84 54 7.0 14.0 0.00 0.00 0.00 62 1014.9
20211021204115 84 40 12.0 15.0 0.00 0.00 0.00 62 1014.8
20211021204017 84 90 4.0 15.0 0.00 0.00 0.00 62 1014.9
20211021203915 84 50 8.0 15.0 0.00 0.00 0.00 62 1014.8
20211021203816 84 43 10.0 15.0 0.00 0.00 0.00 62 1014.8
20211021203717 84 78 1.0 15.0 0.00 0.00 0.00 62 1014.8
20211021203615 84 57 11.0 15.0 0.00 0.00 0.00 62 1014.8
20211021203417 84 87 5.0 16.0 0.00 0.00 0.00 62 1014.8
20211021203315 84 57 7.0 16.0 0.00 0.00 0.00 62 1014.8
20211021203217 84 45 5.0 16.0 0.00 0.00 0.00 62 1014.9
20211021203017 84 50 9.0 13.0 0.00 0.00 0.00 61 1015.0
20211021202816 84 68 8.0 13.0 0.00 0.00 0.00 61 1015.0
20211021202716 84 7 10.0 13.0 0.00 0.00 0.00 62 1015.0
20211021202616 84 81 7.0 13.0 0.00 0.00 0.00 62 1015.1
20211021202515 84 45 8.0 17.0 0.00 0.00 0.00 62 1015.0
20211021202416 84 40 5.0 17.0 0.00 0.00 0.00 62 1015.0
20211021202216 84 73 9.0 17.0 0.00 0.00 0.00 62 1015.1
20211021202116 84 39 6.0 17.0 0.00 0.00 0.00 62 1015.1
20211021202015 84 40 9.0 17.0 0.00 0.00 0.00 61 1015.1
20211021201915 84 56 8.0 17.0 0.00 0.00 0.00 61 1015.1
20211021201817 84 73 15.0 17.0 0.00 0.00 0.00 61 1015.1
20211021201716 84 73 7.0 17.0 0.00 0.00 0.00 61 1015.1
20211021201620 85 81 8.0 17.0 0.00 0.00 0.00 61 1015.0
20211021201611 85 56 11.0 14.0 0.00 0.00 0.00 61 1015.0
20211021201316 84 37 13.0 14.0 0.00 0.00 0.00 61 1015.0
20211021201217 85 57 10.0 14.0 0.00 0.00 0.00 61 1014.9
20211021201116 85 43 5.0 14.0 0.00 0.00 0.00 61 1015.0
20211021201016 85 29 2.0 12.0 0.00 0.00 0.00 61 1014.9
20211021200915 85 19 6.0 12.0 0.00 0.00 0.00 61 1014.9
20211021200816 85 77 5.0 12.0 0.00 0.00 0.00 61 1014.9
20211021200716 85 63 2.0 12.0 0.00 0.00 0.00 61 1015.0
20211021200616 85 64 3.0 20.0 0.00 0.00 0.00 62 1015.0
20211021200515 84 11 1.0 20.0 0.00 0.00 0.00 62 1015.0
20211021200416 84 57 6.0 20.0 0.00 0.00 0.00 62 1015.0
20211021200316 85 84 9.0 20.0 0.00 0.00 0.00 61 1015.0
20211021200116 85 47 5.0 20.0 0.00 0.00 0.00 60 1015.1
20211021200016 85 77 9.0 18.0 0.00 0.00 0.00 60 1015.0
20211021195916 85 33 12.0 18.0 0.00 0.00 0.00 60 1015.0
20211021195816 85 28 7.0 18.0 0.00 0.00 0.00 60 1015.0
20211021195715 85 57 10.0 18.0 0.00 0.00 0.00 60 1015.0
20211021195617 85 36 18.0 16.0 0.00 0.00 0.00 61 1015.0
20211021195516 85 9 1.0 16.0 0.00 0.00 0.00 61 1015.0
20211021195416 85 35 6.0 16.0 0.00 0.00 0.00 61 1015.0
20211021195316 85 15 3.0 16.0 0.00 0.00 0.00 61 1015.0